<?xml version='1.0' encoding='UTF-8'?><gpx version="1.1" creator="JPX - https://github.com/jenetics/jpx" xmlns="http://www.topografix.com/GPX/1/1"><trk><trkseg><trkpt lat="43.47179776130118" lon="11.432717232823128"><ele>380.0</ele><time>2026-04-25T06:13:02Z</time></trkpt><trkpt lat="43.471922509269504" lon="11.432745756448375"><ele>380.0</ele><time>2026-04-25T06:13:04Z</time></trkpt><trkpt lat="43.47198869161087" lon="11.432783082815842"><ele>380.0</ele><time>2026-04-25T06:13:05Z</time></trkpt><trkpt lat="43.472067743341285" lon="11.432823407808458"><ele>380.0</ele><time>2026-04-25T06:13:06Z</time></trkpt><trkpt lat="43.47216274557574" lon="11.432866958301604"><ele>380.0</ele><time>2026-04-25T06:13:07Z</time></trkpt><trkpt lat="43.472267943307024" lon="11.432908894403523"><ele>381.5</ele><time>2026-04-25T06:13:08Z</time></trkpt><trkpt lat="43.47237383087832" lon="11.432930251944903"><ele>383.0</ele><time>2026-04-25T06:13:09Z</time></trkpt><trkpt lat="43.47248677207063" lon="11.432919997669096"><ele>384.5</ele><time>2026-04-25T06:13:10Z</time></trkpt><trkpt lat="43.47260921867209" lon="11.43289555449561"><ele>386.0</ele><time>2026-04-25T06:13:11Z</time></trkpt><trkpt lat="43.4727280118016" lon="11.432877228650884"><ele>386.0</ele><time>2026-04-25T06:13:12Z</time></trkpt><trkpt lat="43.47285868711614" lon="11.432853724667321"><ele>386.0</ele><time>2026-04-25T06:13:13Z</time></trkpt><trkpt lat="43.47298190083715" lon="11.432836297963972"><ele>386.0</ele><time>2026-04-25T06:13:14Z</time></trkpt><trkpt lat="43.473104469822815" lon="11.43281800922727"><ele>386.0</ele><time>2026-04-25T06:13:15Z</time></trkpt><trkpt lat="43.47322969843267" lon="11.432777804246076"><ele>387.0</ele><time>2026-04-25T06:13:16Z</time></trkpt><trkpt lat="43.4733502527646" lon="11.432709488317874"><ele>388.0</ele><time>2026-04-25T06:13:17Z</time></trkpt><trkpt lat="43.47346482537951" lon="11.432619746530374"><ele>389.0</ele><time>2026-04-25T06:13:18Z</time></trkpt><trkpt lat="43.47358184537677" lon="11.432539144125002"><ele>390.0</ele><time>2026-04-25T06:13:19Z</time></trkpt><trkpt lat="43.473702818677445" lon="11.432477287640127"><ele>389.25</ele><time>2026-04-25T06:13:20Z</time></trkpt><trkpt lat="43.473821499416665" lon="11.432420639589571"><ele>388.5</ele><time>2026-04-25T06:13:21Z</time></trkpt><trkpt lat="43.473927221097966" lon="11.432335143898232"><ele>387.75</ele><time>2026-04-25T06:13:22Z</time></trkpt><trkpt lat="43.474027937062345" lon="11.432224083106552"><ele>387.0</ele><time>2026-04-25T06:13:23Z</time></trkpt><trkpt lat="43.47412749493362" lon="11.432111827039465"><ele>391.0</ele><time>2026-04-25T06:13:24Z</time></trkpt><trkpt lat="43.47423329828353" lon="11.43200199985561"><ele>395.0</ele><time>2026-04-25T06:13:25Z</time></trkpt><trkpt lat="43.47434362752907" lon="11.431898443756722"><ele>399.0</ele><time>2026-04-25T06:13:26Z</time></trkpt><trkpt lat="43.474458712300596" lon="11.431796025358581"><ele>403.0</ele><time>2026-04-25T06:13:27Z</time></trkpt><trkpt lat="43.47457384066804" lon="11.431694781452892"><ele>401.5</ele><time>2026-04-25T06:13:28Z</time></trkpt><trkpt lat="43.47469264228328" lon="11.431595495375069"><ele>400.0</ele><time>2026-04-25T06:13:29Z</time></trkpt><trkpt lat="43.47480854427057" lon="11.431498652331133"><ele>398.5</ele><time>2026-04-25T06:13:30Z</time></trkpt><trkpt lat="43.4749244558608" lon="11.431405265799206"><ele>397.0</ele><time>2026-04-25T06:13:31Z</time></trkpt><trkpt lat="43.475040706249395" lon="11.431308874075478"><ele>398.5</ele><time>2026-04-25T06:13:32Z</time></trkpt><trkpt lat="43.475155127419626" lon="11.431213827805514"><ele>400.0</ele><time>2026-04-25T06:13:33Z</time></trkpt><trkpt lat="43.475271858796404" lon="11.431111080923765"><ele>401.5</ele><time>2026-04-25T06:13:34Z</time></trkpt><trkpt lat="43.47539156730771" lon="11.431007722828037"><ele>403.0</ele><time>2026-04-25T06:13:35Z</time></trkpt><trkpt lat="43.47552245414569" lon="11.430923794048812"><ele>403.0</ele><time>2026-04-25T06:13:36Z</time></trkpt><trkpt lat="43.47563332101981" lon="11.430831929199014"><ele>403.0</ele><time>2026-04-25T06:13:37Z</time></trkpt><trkpt lat="43.47571705301528" lon="11.43073920096973"><ele>403.0</ele><time>2026-04-25T06:13:38Z</time></trkpt><trkpt lat="43.47579611984738" lon="11.43068481788827"><ele>403.0</ele><time>2026-04-25T06:13:39Z</time></trkpt><trkpt lat="43.47586878354312" lon="11.43065933436788"><ele>403.0</ele><time>2026-04-25T06:13:40Z</time></trkpt><trkpt lat="43.475936458826446" lon="11.43066879692606"><ele>403.00000000000006</ele><time>2026-04-25T06:13:41Z</time></trkpt><trkpt lat="43.47600093975682" lon="11.430719169836834"><ele>403.0</ele><time>2026-04-25T06:13:42Z</time></trkpt><trkpt lat="43.47605127128767" lon="11.430800624879826"><ele>403.0</ele><time>2026-04-25T06:13:43Z</time></trkpt><trkpt lat="43.47607941080578" lon="11.430894533699997"><ele>403.0</ele><time>2026-04-25T06:13:44Z</time></trkpt><trkpt lat="43.476065644644855" lon="11.430993704417466"><ele>403.00000000000006</ele><time>2026-04-25T06:13:45Z</time></trkpt><trkpt lat="43.47601359825678" lon="11.431063578226196"><ele>403.0</ele><time>2026-04-25T06:13:46Z</time></trkpt><trkpt lat="43.47593732876935" lon="11.431111098816437"><ele>403.0</ele><time>2026-04-25T06:13:47Z</time></trkpt><trkpt lat="43.47585148441031" lon="11.431161730681977"><ele>403.0</ele><time>2026-04-25T06:13:48Z</time></trkpt><trkpt lat="43.47576615722287" lon="11.431227706769333"><ele>403.0</ele><time>2026-04-25T06:13:49Z</time></trkpt><trkpt lat="43.47567618112908" lon="11.431310026255423"><ele>403.0</ele><time>2026-04-25T06:13:50Z</time></trkpt><trkpt lat="43.475590998154125" lon="11.431393812875285"><ele>403.0</ele><time>2026-04-25T06:13:51Z</time></trkpt><trkpt lat="43.475507001720196" lon="11.43148414772128"><ele>401.79999999999995</ele><time>2026-04-25T06:13:52Z</time></trkpt><trkpt lat="43.47542250870952" lon="11.431575063159551"><ele>400.6</ele><time>2026-04-25T06:13:53Z</time></trkpt><trkpt lat="43.475335351460764" lon="11.431664717454192"><ele>399.4</ele><time>2026-04-25T06:13:54Z</time></trkpt><trkpt lat="43.47524806091078" lon="11.431759109906082"><ele>398.20000000000005</ele><time>2026-04-25T06:13:55Z</time></trkpt><trkpt lat="43.47516713728842" lon="11.431868341615571"><ele>397.0</ele><time>2026-04-25T06:13:56Z</time></trkpt><trkpt lat="43.47509636794716" lon="11.431995701195799"><ele>397.0</ele><time>2026-04-25T06:13:57Z</time></trkpt><trkpt lat="43.47502874830152" lon="11.432131375651121"><ele>397.0</ele><time>2026-04-25T06:13:58Z</time></trkpt><trkpt lat="43.4749689889752" lon="11.432258057631502"><ele>397.0</ele><time>2026-04-25T06:13:59Z</time></trkpt><trkpt lat="43.474917125185435" lon="11.432366883379633"><ele>397.0</ele><time>2026-04-25T06:14:00Z</time></trkpt><trkpt lat="43.47487532989374" lon="11.4324821014907"><ele>397.0</ele><time>2026-04-25T06:14:01Z</time></trkpt><trkpt lat="43.474858774539" lon="11.432598026794672"><ele>397.8</ele><time>2026-04-25T06:14:02Z</time></trkpt><trkpt lat="43.474885445192434" lon="11.432709288639588"><ele>398.6</ele><time>2026-04-25T06:14:03Z</time></trkpt><trkpt lat="43.474939762119625" lon="11.432816598358444"><ele>399.40000000000003</ele><time>2026-04-25T06:14:04Z</time></trkpt><trkpt lat="43.47501516852785" lon="11.432914704018854"><ele>400.20000000000005</ele><time>2026-04-25T06:14:05Z</time></trkpt><trkpt lat="43.47509130041363" lon="11.433010673509699"><ele>401.0</ele><time>2026-04-25T06:14:06Z</time></trkpt><trkpt lat="43.47517298664094" lon="11.433101094105332"><ele>401.0</ele><time>2026-04-25T06:14:07Z</time></trkpt><trkpt lat="43.47524997641267" lon="11.43319571412019"><ele>401.0</ele><time>2026-04-25T06:14:08Z</time></trkpt><trkpt lat="43.4753227013544" lon="11.433283299322369"><ele>401.0</ele><time>2026-04-25T06:14:09Z</time></trkpt><trkpt lat="43.47539419433219" lon="11.433361701533801"><ele>401.0</ele><time>2026-04-25T06:14:10Z</time></trkpt><trkpt lat="43.475468104449156" lon="11.433416907446153"><ele>401.0</ele><time>2026-04-25T06:14:11Z</time></trkpt><trkpt lat="43.475551469645126" lon="11.433462762155449"><ele>402.4</ele><time>2026-04-25T06:14:12Z</time></trkpt><trkpt lat="43.47564026370297" lon="11.433496654760377"><ele>403.8</ele><time>2026-04-25T06:14:13Z</time></trkpt><trkpt lat="43.475731833258635" lon="11.433531066568923"><ele>405.2</ele><time>2026-04-25T06:14:14Z</time></trkpt><trkpt lat="43.47581424149599" lon="11.433599529347473"><ele>406.59999999999997</ele><time>2026-04-25T06:14:15Z</time></trkpt><trkpt lat="43.4758786291458" lon="11.433698759466635"><ele>408.0</ele><time>2026-04-25T06:14:16Z</time></trkpt><trkpt lat="43.47592142508825" lon="11.433818991655015"><ele>408.0</ele><time>2026-04-25T06:14:17Z</time></trkpt><trkpt lat="43.47595194558853" lon="11.433946002103868"><ele>408.0</ele><time>2026-04-25T06:14:18Z</time></trkpt><trkpt lat="43.47600290485048" lon="11.43406806439584"><ele>408.0</ele><time>2026-04-25T06:14:19Z</time></trkpt><trkpt lat="43.47607442568915" lon="11.434179257013668"><ele>408.0</ele><time>2026-04-25T06:14:20Z</time></trkpt><trkpt lat="43.47615347940853" lon="11.434282192825732"><ele>408.0</ele><time>2026-04-25T06:14:21Z</time></trkpt><trkpt lat="43.47623378490986" lon="11.434385604682417"><ele>409.2</ele><time>2026-04-25T06:14:22Z</time></trkpt><trkpt lat="43.47631505839136" lon="11.43448765634967"><ele>410.4</ele><time>2026-04-25T06:14:23Z</time></trkpt><trkpt lat="43.476398728204835" lon="11.434589264124913"><ele>411.59999999999997</ele><time>2026-04-25T06:14:24Z</time></trkpt><trkpt lat="43.47648728944647" lon="11.434686750542047"><ele>412.79999999999995</ele><time>2026-04-25T06:14:25Z</time></trkpt><trkpt lat="43.47657701757095" lon="11.434782011987453"><ele>414.0</ele><time>2026-04-25T06:14:26Z</time></trkpt><trkpt lat="43.476666446046494" lon="11.434877752642922"><ele>414.0</ele><time>2026-04-25T06:14:27Z</time></trkpt><trkpt lat="43.47675509329865" lon="11.43497739870013"><ele>414.0</ele><time>2026-04-25T06:14:28Z</time></trkpt><trkpt lat="43.47684418455979" lon="11.435076469688836"><ele>414.0</ele><time>2026-04-25T06:14:29Z</time></trkpt><trkpt lat="43.47693439237399" lon="11.435170266270712"><ele>414.0</ele><time>2026-04-25T06:14:30Z</time></trkpt><trkpt lat="43.47703117261079" lon="11.435251694360685"><ele>415.5</ele><time>2026-04-25T06:14:31Z</time></trkpt><trkpt lat="43.47713955757627" lon="11.4353017377645"><ele>417.0</ele><time>2026-04-25T06:14:32Z</time></trkpt><trkpt lat="43.47724962973568" lon="11.435343006717048"><ele>418.5</ele><time>2026-04-25T06:14:33Z</time></trkpt><trkpt lat="43.477358393422584" lon="11.435396583159902"><ele>420.0</ele><time>2026-04-25T06:14:34Z</time></trkpt><trkpt lat="43.47746189073172" lon="11.43547154554011"><ele>420.0</ele><time>2026-04-25T06:14:35Z</time></trkpt><trkpt lat="43.47755820794893" lon="11.43557245929832"><ele>420.0</ele><time>2026-04-25T06:14:36Z</time></trkpt><trkpt lat="43.47764999071819" lon="11.435689966501497"><ele>420.0</ele><time>2026-04-25T06:14:37Z</time></trkpt><trkpt lat="43.47773249147152" lon="11.435798751987733"><ele>420.0</ele><time>2026-04-25T06:14:38Z</time></trkpt><trkpt lat="43.47781783766472" lon="11.435881862959338"><ele>420.0</ele><time>2026-04-25T06:14:39Z</time></trkpt><trkpt lat="43.47792632272769" lon="11.435925070412793"><ele>420.0</ele><time>2026-04-25T06:14:40Z</time></trkpt><trkpt lat="43.47804292337367" lon="11.435918217230736"><ele>420.0</ele><time>2026-04-25T06:14:41Z</time></trkpt><trkpt lat="43.47815926744606" lon="11.43589883757014"><ele>420.0</ele><time>2026-04-25T06:14:42Z</time></trkpt><trkpt lat="43.47827515352355" lon="11.435910839543972"><ele>423.0</ele><time>2026-04-25T06:14:43Z</time></trkpt><trkpt lat="43.47838953456066" lon="11.4359544994652"><ele>426.0</ele><time>2026-04-25T06:14:44Z</time></trkpt><trkpt lat="43.47850416292459" lon="11.436011142833568"><ele>429.0</ele><time>2026-04-25T06:14:45Z</time></trkpt><trkpt lat="43.47862063345145" lon="11.43606352920559"><ele>432.0</ele><time>2026-04-25T06:14:46Z</time></trkpt><trkpt lat="43.47873615045772" lon="11.43611104614746"><ele>432.25</ele><time>2026-04-25T06:14:47Z</time></trkpt><trkpt lat="43.47884894988248" lon="11.436163303097471"><ele>432.5</ele><time>2026-04-25T06:14:48Z</time></trkpt><trkpt lat="43.478959282267716" lon="11.436225274074207"><ele>432.75</ele><time>2026-04-25T06:14:49Z</time></trkpt><trkpt lat="43.47905930311503" lon="11.43630605974225"><ele>433.0</ele><time>2026-04-25T06:14:50Z</time></trkpt><trkpt lat="43.47914883860702" lon="11.436398515277908"><ele>433.0</ele><time>2026-04-25T06:14:51Z</time></trkpt><trkpt lat="43.479248377928016" lon="11.436476041264537"><ele>433.0</ele><time>2026-04-25T06:14:52Z</time></trkpt><trkpt lat="43.47935935532719" lon="11.436531982414255"><ele>433.0</ele><time>2026-04-25T06:14:53Z</time></trkpt><trkpt lat="43.47947507913522" lon="11.436569296278789"><ele>433.0</ele><time>2026-04-25T06:14:54Z</time></trkpt><trkpt lat="43.479593872407214" lon="11.43659376628256"><ele>435.25</ele><time>2026-04-25T06:14:55Z</time></trkpt><trkpt lat="43.47971514927864" lon="11.436617712811382"><ele>437.5</ele><time>2026-04-25T06:14:56Z</time></trkpt><trkpt lat="43.479835913564116" lon="11.436636994699219"><ele>439.75</ele><time>2026-04-25T06:14:57Z</time></trkpt><trkpt lat="43.47995710488646" lon="11.436654959399533"><ele>442.0</ele><time>2026-04-25T06:14:58Z</time></trkpt><trkpt lat="43.48007856043024" lon="11.436672067761902"><ele>442.0</ele><time>2026-04-25T06:14:59Z</time></trkpt><trkpt lat="43.480197404141975" lon="11.43668614516269"><ele>442.0</ele><time>2026-04-25T06:15:00Z</time></trkpt><trkpt lat="43.480319947763206" lon="11.436680716314195"><ele>442.0</ele><time>2026-04-25T06:15:01Z</time></trkpt><trkpt lat="43.48044236688791" lon="11.436661706920837"><ele>442.0</ele><time>2026-04-25T06:15:02Z</time></trkpt><trkpt lat="43.480550642497064" lon="11.436636626647559"><ele>442.50000000000006</ele><time>2026-04-25T06:15:03Z</time></trkpt><trkpt lat="43.48064575687467" lon="11.436610996030204"><ele>443.0</ele><time>2026-04-25T06:15:04Z</time></trkpt><trkpt lat="43.48072543950342" lon="11.43659527766238"><ele>443.5</ele><time>2026-04-25T06:15:05Z</time></trkpt><trkpt lat="43.480791860938076" lon="11.436579395495087"><ele>444.0</ele><time>2026-04-25T06:15:06Z</time></trkpt><trkpt lat="43.480875766604115" lon="11.436549882961469"><ele>444.50000000000006</ele><time>2026-04-25T06:15:08Z</time></trkpt><trkpt lat="43.48095427916124" lon="11.436514949997038"><ele>445.0</ele><time>2026-04-25T06:15:45Z</time></trkpt><trkpt lat="43.48084453169887" lon="11.436515806340493"><ele>445.0</ele><time>2026-04-25T06:15:50Z</time></trkpt><trkpt lat="43.48077674201514" lon="11.436545091199612"><ele>445.0</ele><time>2026-04-25T06:15:51Z</time></trkpt><trkpt lat="43.48070120804804" lon="11.436589350468255"><ele>445.0</ele><time>2026-04-25T06:15:52Z</time></trkpt><trkpt lat="43.480538972112065" lon="11.436597790115979"><ele>445.0</ele><time>2026-04-25T06:15:53Z</time></trkpt><trkpt lat="43.48043036648766" lon="11.436624919045308"><ele>445.0</ele><time>2026-04-25T06:15:54Z</time></trkpt><trkpt lat="43.480322494599214" lon="11.436643224442681"><ele>444.25</ele><time>2026-04-25T06:15:55Z</time></trkpt><trkpt lat="43.48020326145399" lon="11.436644986918367"><ele>443.5</ele><time>2026-04-25T06:15:56Z</time></trkpt><trkpt lat="43.480069663272864" lon="11.4366371085803"><ele>442.75</ele><time>2026-04-25T06:15:57Z</time></trkpt><trkpt lat="43.47993873557625" lon="11.436625123637043"><ele>442.0</ele><time>2026-04-25T06:15:58Z</time></trkpt><trkpt lat="43.47980666269828" lon="11.436605588391254"><ele>442.0</ele><time>2026-04-25T06:15:59Z</time></trkpt><trkpt lat="43.47967226246751" lon="11.43658116117796"><ele>442.0</ele><time>2026-04-25T06:16:00Z</time></trkpt><trkpt lat="43.479536999674906" lon="11.436563635172979"><ele>442.0</ele><time>2026-04-25T06:16:01Z</time></trkpt><trkpt lat="43.47941852007746" lon="11.436523357940638"><ele>442.0</ele><time>2026-04-25T06:16:02Z</time></trkpt><trkpt lat="43.479298213526455" lon="11.436466815707579"><ele>444.0</ele><time>2026-04-25T06:16:03Z</time></trkpt><trkpt lat="43.47917514256143" lon="11.436378563548041"><ele>446.0</ele><time>2026-04-25T06:16:04Z</time></trkpt><trkpt lat="43.479056897776864" lon="11.436270834912516"><ele>448.0</ele><time>2026-04-25T06:16:05Z</time></trkpt><trkpt lat="43.47893756071613" lon="11.43617485449318"><ele>450.0</ele><time>2026-04-25T06:16:06Z</time></trkpt><trkpt lat="43.47880915131722" lon="11.436098772409323"><ele>445.5</ele><time>2026-04-25T06:16:07Z</time></trkpt><trkpt lat="43.47867425720434" lon="11.436043009993044"><ele>441.0</ele><time>2026-04-25T06:16:08Z</time></trkpt><trkpt lat="43.47853892179503" lon="11.435995348545047"><ele>436.5</ele><time>2026-04-25T06:16:09Z</time></trkpt><trkpt lat="43.47840834357054" lon="11.435944130823007"><ele>432.0</ele><time>2026-04-25T06:16:10Z</time></trkpt><trkpt lat="43.4782882345577" lon="11.435893316432523"><ele>432.0</ele><time>2026-04-25T06:16:11Z</time></trkpt><trkpt lat="43.478170292969146" lon="11.435866663436425"><ele>432.00000000000006</ele><time>2026-04-25T06:16:12Z</time></trkpt><trkpt lat="43.47805963827336" lon="11.43588043811597"><ele>432.00000000000006</ele><time>2026-04-25T06:16:13Z</time></trkpt><trkpt lat="43.47795422167449" lon="11.435883650673395"><ele>432.0</ele><time>2026-04-25T06:16:14Z</time></trkpt><trkpt lat="43.47785821531397" lon="11.435855645231175"><ele>432.0</ele><time>2026-04-25T06:16:15Z</time></trkpt><trkpt lat="43.477760698381175" lon="11.435778903764811"><ele>433.25</ele><time>2026-04-25T06:16:16Z</time></trkpt><trkpt lat="43.4776789901767" lon="11.435649820459549"><ele>434.5</ele><time>2026-04-25T06:16:17Z</time></trkpt><trkpt lat="43.47757731856951" lon="11.435551051243893"><ele>435.75</ele><time>2026-04-25T06:16:18Z</time></trkpt><trkpt lat="43.47747775740723" lon="11.43544766506388"><ele>437.0</ele><time>2026-04-25T06:16:19Z</time></trkpt><trkpt lat="43.47736608945733" lon="11.43536656716552"><ele>437.0</ele><time>2026-04-25T06:16:20Z</time></trkpt><trkpt lat="43.477243050610426" lon="11.43531183020064"><ele>437.0</ele><time>2026-04-25T06:16:21Z</time></trkpt><trkpt lat="43.477119247890336" lon="11.435262659042053"><ele>437.0</ele><time>2026-04-25T06:16:22Z</time></trkpt><trkpt lat="43.47701442573362" lon="11.435176782129162"><ele>437.0</ele><time>2026-04-25T06:16:23Z</time></trkpt><trkpt lat="43.47690437617477" lon="11.435076840350764"><ele>435.25</ele><time>2026-04-25T06:16:24Z</time></trkpt><trkpt lat="43.47678342959" lon="11.434972436905154"><ele>433.5</ele><time>2026-04-25T06:16:25Z</time></trkpt><trkpt lat="43.476677130357025" lon="11.434847322530217"><ele>431.75</ele><time>2026-04-25T06:16:26Z</time></trkpt><trkpt lat="43.476571706093736" lon="11.434729319031865"><ele>430.0</ele><time>2026-04-25T06:16:27Z</time></trkpt><trkpt lat="43.47647405098336" lon="11.434617478994946"><ele>430.0</ele><time>2026-04-25T06:16:28Z</time></trkpt><trkpt lat="43.47638257515891" lon="11.434508409938765"><ele>430.0</ele><time>2026-04-25T06:16:29Z</time></trkpt><trkpt lat="43.4762973044355" lon="11.434403624157452"><ele>430.0</ele><time>2026-04-25T06:16:30Z</time></trkpt><trkpt lat="43.47621765688296" lon="11.434303624281412"><ele>430.0</ele><time>2026-04-25T06:16:31Z</time></trkpt><trkpt lat="43.47614077109604" lon="11.434206655352714"><ele>430.0</ele><time>2026-04-25T06:16:32Z</time></trkpt><trkpt lat="43.47606471142047" lon="11.434106161180072"><ele>427.6</ele><time>2026-04-25T06:16:33Z</time></trkpt><trkpt lat="43.47599506516102" lon="11.433983056669085"><ele>425.2</ele><time>2026-04-25T06:16:34Z</time></trkpt><trkpt lat="43.47596623901845" lon="11.433828037694656"><ele>422.79999999999995</ele><time>2026-04-25T06:16:35Z</time></trkpt><trkpt lat="43.475910837946984" lon="11.43369588310951"><ele>420.4</ele><time>2026-04-25T06:16:36Z</time></trkpt><trkpt lat="43.47586424577524" lon="11.433563449926092"><ele>418.0</ele><time>2026-04-25T06:16:37Z</time></trkpt><trkpt lat="43.475746596121134" lon="11.43351065433653"><ele>418.0</ele><time>2026-04-25T06:16:38Z</time></trkpt><trkpt lat="43.47562576530098" lon="11.433463508719129"><ele>418.0</ele><time>2026-04-25T06:16:39Z</time></trkpt><trkpt lat="43.47550175251247" lon="11.433400714841486"><ele>418.0</ele><time>2026-04-25T06:16:40Z</time></trkpt><trkpt lat="43.47538594261215" lon="11.433308092652833"><ele>418.0</ele><time>2026-04-25T06:16:41Z</time></trkpt><trkpt lat="43.47528361680615" lon="11.43317317528452"><ele>414.5</ele><time>2026-04-25T06:16:42Z</time></trkpt><trkpt lat="43.47517728206639" lon="11.433047037593019"><ele>411.0</ele><time>2026-04-25T06:16:43Z</time></trkpt><trkpt lat="43.47508154768558" lon="11.432933474369259"><ele>407.5</ele><time>2026-04-25T06:16:44Z</time></trkpt><trkpt lat="43.474988608213934" lon="11.432846877386428"><ele>404.0</ele><time>2026-04-25T06:16:45Z</time></trkpt><trkpt lat="43.4749295156032" lon="11.43274323375559"><ele>404.0</ele><time>2026-04-25T06:16:46Z</time></trkpt><trkpt lat="43.47489991925118" lon="11.432632739855253"><ele>404.0</ele><time>2026-04-25T06:16:47Z</time></trkpt><trkpt lat="43.47489789750252" lon="11.432517121224487"><ele>404.0</ele><time>2026-04-25T06:16:48Z</time></trkpt><trkpt lat="43.47493399233989" lon="11.432384965639555"><ele>404.0</ele><time>2026-04-25T06:16:49Z</time></trkpt><trkpt lat="43.474998028583194" lon="11.43225322131614"><ele>404.0</ele><time>2026-04-25T06:16:50Z</time></trkpt><trkpt lat="43.47506430065341" lon="11.432118355087832"><ele>401.66666666666663</ele><time>2026-04-25T06:16:51Z</time></trkpt><trkpt lat="43.475132114787506" lon="11.431986388873396"><ele>399.33333333333337</ele><time>2026-04-25T06:16:52Z</time></trkpt><trkpt lat="43.475204640686314" lon="11.4318608716972"><ele>397.0</ele><time>2026-04-25T06:16:53Z</time></trkpt><trkpt lat="43.47539959455283" lon="11.431634881910504"><ele>398.5</ele><time>2026-04-25T06:16:55Z</time></trkpt><trkpt lat="43.47551063283608" lon="11.43152095162311"><ele>400.0</ele><time>2026-04-25T06:16:56Z</time></trkpt><trkpt lat="43.47561312224949" lon="11.431418988356814"><ele>401.5</ele><time>2026-04-25T06:16:57Z</time></trkpt><trkpt lat="43.47571380453151" lon="11.431318519290162"><ele>403.0</ele><time>2026-04-25T06:16:58Z</time></trkpt><trkpt lat="43.475813996310485" lon="11.43122980464319"><ele>403.0</ele><time>2026-04-25T06:16:59Z</time></trkpt><trkpt lat="43.475913095965524" lon="11.431152626524627"><ele>403.0</ele><time>2026-04-25T06:17:00Z</time></trkpt><trkpt lat="43.47599732620642" lon="11.431088574310845"><ele>403.0</ele><time>2026-04-25T06:17:01Z</time></trkpt><trkpt lat="43.47606447167636" lon="11.431024122895932"><ele>403.0</ele><time>2026-04-25T06:17:02Z</time></trkpt><trkpt lat="43.47611324458628" lon="11.430952297147266"><ele>403.0</ele><time>2026-04-25T06:17:03Z</time></trkpt><trkpt lat="43.4761092235978" lon="11.430830316486038"><ele>403.0</ele><time>2026-04-25T06:17:04Z</time></trkpt><trkpt lat="43.47602940681144" lon="11.430736031356796"><ele>403.0</ele><time>2026-04-25T06:17:05Z</time></trkpt><trkpt lat="43.47596983831417" lon="11.430639337240127"><ele>403.0</ele><time>2026-04-25T06:17:06Z</time></trkpt><trkpt lat="43.47587839767407" lon="11.430631558995447"><ele>403.0</ele><time>2026-04-25T06:17:07Z</time></trkpt><trkpt lat="43.47578883403489" lon="11.430653565542315"><ele>403.0</ele><time>2026-04-25T06:17:08Z</time></trkpt><trkpt lat="43.4756898612169" lon="11.430727917644136"><ele>403.0</ele><time>2026-04-25T06:17:09Z</time></trkpt><trkpt lat="43.4755814272573" lon="11.430833645601945"><ele>403.0</ele><time>2026-04-25T06:17:10Z</time></trkpt><trkpt lat="43.47546970430676" lon="11.430925891785538"><ele>403.0</ele><time>2026-04-25T06:17:11Z</time></trkpt><trkpt lat="43.47535187617281" lon="11.43101631577622"><ele>403.0</ele><time>2026-04-25T06:17:12Z</time></trkpt><trkpt lat="43.47522812221404" lon="11.431111554058349"><ele>403.25</ele><time>2026-04-25T06:17:13Z</time></trkpt><trkpt lat="43.47510231695199" lon="11.431215400551093"><ele>403.5</ele><time>2026-04-25T06:17:14Z</time></trkpt><trkpt lat="43.474976130280346" lon="11.43132361578598"><ele>403.75</ele><time>2026-04-25T06:17:15Z</time></trkpt><trkpt lat="43.47484780259968" lon="11.431434368333607"><ele>404.0</ele><time>2026-04-25T06:17:16Z</time></trkpt><trkpt lat="43.47471671622937" lon="11.431546950477836"><ele>403.75</ele><time>2026-04-25T06:17:17Z</time></trkpt><trkpt lat="43.47458843003416" lon="11.431658149158213"><ele>403.5</ele><time>2026-04-25T06:17:18Z</time></trkpt><trkpt lat="43.47446134601709" lon="11.431760989443662"><ele>403.25</ele><time>2026-04-25T06:17:19Z</time></trkpt><trkpt lat="43.474335863250765" lon="11.43187052599821"><ele>403.0</ele><time>2026-04-25T06:17:20Z</time></trkpt><trkpt lat="43.474219407334125" lon="11.431979326318533"><ele>403.0</ele><time>2026-04-25T06:17:21Z</time></trkpt><trkpt lat="43.47410547782591" lon="11.432095545295239"><ele>403.0</ele><time>2026-04-25T06:17:22Z</time></trkpt><trkpt lat="43.4740118981659" lon="11.432214468191336"><ele>403.0</ele><time>2026-04-25T06:17:23Z</time></trkpt><trkpt lat="43.47391230937402" lon="11.432324233589826"><ele>403.0</ele><time>2026-04-25T06:17:24Z</time></trkpt><trkpt lat="43.47380488635519" lon="11.432399066385392"><ele>399.75</ele><time>2026-04-25T06:17:25Z</time></trkpt><trkpt lat="43.47368403668409" lon="11.432457188755839"><ele>396.5</ele><time>2026-04-25T06:17:26Z</time></trkpt><trkpt lat="43.47355153115227" lon="11.432525937443915"><ele>393.25</ele><time>2026-04-25T06:17:27Z</time></trkpt><trkpt lat="43.473429465625166" lon="11.43262197685496"><ele>390.0</ele><time>2026-04-25T06:17:28Z</time></trkpt><trkpt lat="43.4733167117167" lon="11.432693477686385"><ele>390.0</ele><time>2026-04-25T06:17:29Z</time></trkpt><trkpt lat="43.47319727331149" lon="11.43276229808428"><ele>390.0</ele><time>2026-04-25T06:17:30Z</time></trkpt><trkpt lat="43.47307158056848" lon="11.432807551625087"><ele>390.0</ele><time>2026-04-25T06:17:31Z</time></trkpt><trkpt lat="43.47293171556813" lon="11.432824575554317"><ele>390.0</ele><time>2026-04-25T06:17:32Z</time></trkpt><trkpt lat="43.47278781472062" lon="11.432841131029308"><ele>389.0</ele><time>2026-04-25T06:17:33Z</time></trkpt><trkpt lat="43.47264920371773" lon="11.432859646387692"><ele>388.0</ele><time>2026-04-25T06:17:34Z</time></trkpt><trkpt lat="43.47252664035922" lon="11.43288255017665"><ele>387.0</ele><time>2026-04-25T06:17:35Z</time></trkpt><trkpt lat="43.47241408853606" lon="11.432896841597092"><ele>386.0</ele><time>2026-04-25T06:17:36Z</time></trkpt><trkpt lat="43.47228618997591" lon="11.43287968923004"><ele>386.0</ele><time>2026-04-25T06:17:37Z</time></trkpt><trkpt lat="43.47216104708364" lon="11.432830155327464"><ele>386.0</ele><time>2026-04-25T06:17:38Z</time></trkpt><trkpt lat="43.47203151438735" lon="11.43277519400051"><ele>386.0</ele><time>2026-04-25T06:17:39Z</time></trkpt><trkpt lat="43.47191234430921" lon="11.432721525179039"><ele>386.0</ele><time>2026-04-25T06:17:40Z</time></trkpt><trkpt lat="43.471788347987705" lon="11.432699522396849"><ele>384.5</ele><time>2026-04-25T06:17:41Z</time></trkpt><trkpt lat="43.47165617464312" lon="11.43270889958569"><ele>383.0</ele><time>2026-04-25T06:17:42Z</time></trkpt><trkpt lat="43.471528714674925" lon="11.432728271435831"><ele>381.5</ele><time>2026-04-25T06:17:43Z</time></trkpt><trkpt lat="43.47140773173418" lon="11.43275509905287"><ele>380.0</ele><time>2026-04-25T06:17:44Z</time></trkpt><trkpt lat="43.4712906766397" lon="11.432779716588165"><ele>378.4</ele><time>2026-04-25T06:17:45Z</time></trkpt><trkpt lat="43.471179338230165" lon="11.432805003717295"><ele>376.8</ele><time>2026-04-25T06:17:46Z</time></trkpt><trkpt lat="43.47106846751274" lon="11.432832572875991"><ele>375.20000000000005</ele><time>2026-04-25T06:17:47Z</time></trkpt><trkpt lat="43.47095893037613" lon="11.432862419234276"><ele>373.6</ele><time>2026-04-25T06:17:48Z</time></trkpt><trkpt lat="43.47085856383073" lon="11.432891389691815"><ele>372.0</ele><time>2026-04-25T06:17:49Z</time></trkpt><trkpt lat="43.47078478507036" lon="11.432923396508492"><ele>372.0</ele><time>2026-04-25T06:17:50Z</time></trkpt><trkpt lat="43.47069323792935" lon="11.432987911838268"><ele>372.0</ele><time>2026-04-25T06:17:52Z</time></trkpt><trkpt lat="43.470610773974734" lon="11.433003183629829"><ele>372.0</ele><time>2026-04-25T06:17:54Z</time></trkpt><trkpt lat="43.470546099015415" lon="11.432870377864377"><ele>372.0</ele><time>2026-04-25T06:17:57Z</time></trkpt><trkpt lat="43.470524555319" lon="11.43270877589974"><ele>372.0</ele><time>2026-04-25T06:17:59Z</time></trkpt><trkpt lat="43.47053609800143" lon="11.432548313145762"><ele>372.0</ele><time>2026-04-25T06:18:01Z</time></trkpt><trkpt lat="43.47056273614508" lon="11.432402241453264"><ele>372.0</ele><time>2026-04-25T06:18:03Z</time></trkpt><trkpt lat="43.470685529806985" lon="11.432320204423064"><ele>372.0</ele><time>2026-04-25T06:18:05Z</time></trkpt><trkpt lat="43.470770585262066" lon="11.43228545181268"><ele>372.0</ele><time>2026-04-25T06:18:06Z</time></trkpt><trkpt lat="43.47086127356547" lon="11.432259905433904"><ele>372.0</ele><time>2026-04-25T06:18:07Z</time></trkpt><trkpt lat="43.4709642926873" lon="11.43223044120844"><ele>372.0</ele><time>2026-04-25T06:18:08Z</time></trkpt><trkpt lat="43.47105780788526" lon="11.432191648331282"><ele>372.0</ele><time>2026-04-25T06:18:09Z</time></trkpt><trkpt lat="43.47114648286955" lon="11.432125810613773"><ele>372.0</ele><time>2026-04-25T06:18:10Z</time></trkpt><trkpt lat="43.471230519007754" lon="11.432044949638433"><ele>372.0</ele><time>2026-04-25T06:18:11Z</time></trkpt><trkpt lat="43.471311188908984" lon="11.431966320040578"><ele>372.0</ele><time>2026-04-25T06:18:12Z</time></trkpt><trkpt lat="43.471397233645824" lon="11.43188723297508"><ele>375.3333333333333</ele><time>2026-04-25T06:18:13Z</time></trkpt><trkpt lat="43.47148023050002" lon="11.431809696087221"><ele>378.66666666666663</ele><time>2026-04-25T06:18:14Z</time></trkpt><trkpt lat="43.47155576757642" lon="11.431751705907585"><ele>382.0</ele><time>2026-04-25T06:18:15Z</time></trkpt><trkpt lat="43.471631286393894" lon="11.431715251869944"><ele>385.3333333333333</ele><time>2026-04-25T06:18:16Z</time></trkpt><trkpt lat="43.47170644102308" lon="11.431717205406672"><ele>388.66666666666663</ele><time>2026-04-25T06:18:17Z</time></trkpt><trkpt lat="43.47177675949377" lon="11.431765791584931"><ele>392.0</ele><time>2026-04-25T06:18:18Z</time></trkpt><trkpt lat="43.47185262002252" lon="11.431796167033927"><ele>392.0</ele><time>2026-04-25T06:18:19Z</time></trkpt><trkpt lat="43.4719187001161" lon="11.431829603290957"><ele>392.0</ele><time>2026-04-25T06:18:20Z</time></trkpt><trkpt lat="43.47204285133687" lon="11.431740707117855"><ele>392.0</ele><time>2026-04-25T06:18:22Z</time></trkpt><trkpt lat="43.47213232249393" lon="11.431699827158777"><ele>392.0</ele><time>2026-04-25T06:18:23Z</time></trkpt><trkpt lat="43.47220673198464" lon="11.431633170201682"><ele>392.0</ele><time>2026-04-25T06:18:24Z</time></trkpt><trkpt lat="43.47228536190266" lon="11.4315912842692"><ele>393.57142857142856</ele><time>2026-04-25T06:18:25Z</time></trkpt><trkpt lat="43.472364937765676" lon="11.431566056997383"><ele>395.1428571428571</ele><time>2026-04-25T06:18:26Z</time></trkpt><trkpt lat="43.47244032910986" lon="11.431601324869956"><ele>396.7142857142857</ele><time>2026-04-25T06:18:27Z</time></trkpt><trkpt lat="43.47251222332188" lon="11.431589476854075"><ele>398.2857142857143</ele><time>2026-04-25T06:18:28Z</time></trkpt><trkpt lat="43.47258148427759" lon="11.431578677113198"><ele>399.85714285714283</ele><time>2026-04-25T06:18:29Z</time></trkpt><trkpt lat="43.47263865997418" lon="11.431529824244478"><ele>401.42857142857144</ele><time>2026-04-25T06:18:30Z</time></trkpt><trkpt lat="43.47269186936034" lon="11.4314628354278"><ele>403.0</ele><time>2026-04-25T06:18:31Z</time></trkpt><trkpt lat="43.47276080635194" lon="11.431398381563287"><ele>403.00000000000006</ele><time>2026-04-25T06:18:32Z</time></trkpt><trkpt lat="43.472820940314534" lon="11.431317201092376"><ele>403.0</ele><time>2026-04-25T06:18:33Z</time></trkpt><trkpt lat="43.47287862726391" lon="11.431236040932406"><ele>403.0</ele><time>2026-04-25T06:18:34Z</time></trkpt><trkpt lat="43.472936948629425" lon="11.431152887958264"><ele>403.0</ele><time>2026-04-25T06:18:35Z</time></trkpt><trkpt lat="43.472995317686376" lon="11.43106966698389"><ele>403.00000000000006</ele><time>2026-04-25T06:18:36Z</time></trkpt><trkpt lat="43.47305309881" lon="11.430991620165507"><ele>403.0</ele><time>2026-04-25T06:18:37Z</time></trkpt><trkpt lat="43.47311820787237" lon="11.430910684165415"><ele>405.83333333333337</ele><time>2026-04-25T06:18:38Z</time></trkpt><trkpt lat="43.47317676326511" lon="11.430816402060039"><ele>408.6666666666667</ele><time>2026-04-25T06:18:39Z</time></trkpt><trkpt lat="43.473243098410194" lon="11.430738285785482"><ele>411.5</ele><time>2026-04-25T06:18:40Z</time></trkpt><trkpt lat="43.473294538709474" lon="11.430674840308138"><ele>414.33333333333337</ele><time>2026-04-25T06:18:41Z</time></trkpt><trkpt lat="43.47338005032493" lon="11.43055101798982"><ele>417.1666666666667</ele><time>2026-04-25T06:18:43Z</time></trkpt><trkpt lat="43.473429417656114" lon="11.430473124344315"><ele>420.0</ele><time>2026-04-25T06:18:44Z</time></trkpt><trkpt lat="43.47350209030294" lon="11.430345291123032"><ele>420.0</ele><time>2026-04-25T06:18:46Z</time></trkpt><trkpt lat="43.47355600562093" lon="11.4302455139789"><ele>420.0</ele><time>2026-04-25T06:18:48Z</time></trkpt><trkpt lat="43.473595600731585" lon="11.430142085626418"><ele>420.0</ele><time>2026-04-25T06:19:09Z</time></trkpt><trkpt lat="43.47367492439244" lon="11.430019104234974"><ele>420.0</ele><time>2026-04-25T06:19:11Z</time></trkpt><trkpt lat="43.4737240640116" lon="11.429916067169351"><ele>420.0</ele><time>2026-04-25T06:19:12Z</time></trkpt><trkpt lat="43.47377457769689" lon="11.42980984971264"><ele>419.75</ele><time>2026-04-25T06:19:13Z</time></trkpt><trkpt lat="43.473837880140984" lon="11.429673581455862"><ele>419.5</ele><time>2026-04-25T06:19:14Z</time></trkpt><trkpt lat="43.47389998834928" lon="11.429528082616452"><ele>419.25</ele><time>2026-04-25T06:19:15Z</time></trkpt><trkpt lat="43.4739641437279" lon="11.42938241294762"><ele>419.0</ele><time>2026-04-25T06:19:16Z</time></trkpt><trkpt lat="43.47402803907108" lon="11.429238776207812"><ele>421.25</ele><time>2026-04-25T06:19:17Z</time></trkpt><trkpt lat="43.47409196185551" lon="11.429095077782716"><ele>423.5</ele><time>2026-04-25T06:19:18Z</time></trkpt><trkpt lat="43.47415251160697" lon="11.428958961934107"><ele>425.75</ele><time>2026-04-25T06:19:19Z</time></trkpt><trkpt lat="43.474211687737146" lon="11.428828672340606"><ele>428.0</ele><time>2026-04-25T06:19:20Z</time></trkpt><trkpt lat="43.474268535472405" lon="11.428709115458998"><ele>428.25</ele><time>2026-04-25T06:19:21Z</time></trkpt><trkpt lat="43.47432650233327" lon="11.428566793487139"><ele>428.5</ele><time>2026-04-25T06:19:22Z</time></trkpt><trkpt lat="43.474416357413205" lon="11.428447709056625"><ele>428.75</ele><time>2026-04-25T06:19:23Z</time></trkpt><trkpt lat="43.474493781459906" lon="11.428336195683743"><ele>429.0</ele><time>2026-04-25T06:19:24Z</time></trkpt><trkpt lat="43.474564636884125" lon="11.428232485580816"><ele>431.0</ele><time>2026-04-25T06:19:25Z</time></trkpt><trkpt lat="43.474625559790354" lon="11.428118624464998"><ele>433.0</ele><time>2026-04-25T06:19:26Z</time></trkpt><trkpt lat="43.47469805785602" lon="11.42801585558297"><ele>435.0</ele><time>2026-04-25T06:19:27Z</time></trkpt><trkpt lat="43.47475922010172" lon="11.427925889646039"><ele>437.0</ele><time>2026-04-25T06:19:28Z</time></trkpt><trkpt lat="43.474830772035766" lon="11.427843753686545"><ele>439.0</ele><time>2026-04-25T06:19:29Z</time></trkpt><trkpt lat="43.4749124442668" lon="11.42776039391551"><ele>440.0</ele><time>2026-04-25T06:19:30Z</time></trkpt><trkpt lat="43.47500167407349" lon="11.427707764077626"><ele>441.0</ele><time>2026-04-25T06:19:31Z</time></trkpt><trkpt lat="43.47508240458248" lon="11.427620813156947"><ele>442.0</ele><time>2026-04-25T06:19:32Z</time></trkpt><trkpt lat="43.47517289313968" lon="11.427558629960238"><ele>443.0</ele><time>2026-04-25T06:19:33Z</time></trkpt><trkpt lat="43.47525597677072" lon="11.427491377334091"><ele>444.0</ele><time>2026-04-25T06:19:34Z</time></trkpt><trkpt lat="43.47533907725632" lon="11.42742858711686"><ele>444.0</ele><time>2026-04-25T06:19:35Z</time></trkpt><trkpt lat="43.47542066662893" lon="11.427372228357752"><ele>444.0</ele><time>2026-04-25T06:19:36Z</time></trkpt><trkpt lat="43.47548767260636" lon="11.427295771234373"><ele>444.0</ele><time>2026-04-25T06:19:37Z</time></trkpt><trkpt lat="43.47553856850023" lon="11.427212915558453"><ele>444.0</ele><time>2026-04-25T06:19:38Z</time></trkpt><trkpt lat="43.475583023798094" lon="11.427112165481857"><ele>444.0</ele><time>2026-04-25T06:19:39Z</time></trkpt><trkpt lat="43.47562693371111" lon="11.426999712244422"><ele>444.0</ele><time>2026-04-25T06:19:40Z</time></trkpt><trkpt lat="43.47567449285838" lon="11.426902975842914"><ele>447.5</ele><time>2026-04-25T06:19:41Z</time></trkpt><trkpt lat="43.47572246680741" lon="11.426823360209049"><ele>451.0</ele><time>2026-04-25T06:19:42Z</time></trkpt><trkpt lat="43.475793192900156" lon="11.426761375559083"><ele>454.5</ele><time>2026-04-25T06:19:43Z</time></trkpt><trkpt lat="43.47590224646156" lon="11.426642186305324"><ele>458.0</ele><time>2026-04-25T06:19:45Z</time></trkpt><trkpt lat="43.475953028102765" lon="11.42657971255969"><ele>461.5</ele><time>2026-04-25T06:19:46Z</time></trkpt><trkpt lat="43.47601179472816" lon="11.42651842511825"><ele>465.0</ele><time>2026-04-25T06:19:47Z</time></trkpt><trkpt lat="43.47606907888807" lon="11.426469914677735"><ele>465.0</ele><time>2026-04-25T06:19:48Z</time></trkpt><trkpt lat="43.47614048074436" lon="11.426423927836415"><ele>465.0</ele><time>2026-04-25T06:19:49Z</time></trkpt><trkpt lat="43.47620956323395" lon="11.426390069417836"><ele>465.0</ele><time>2026-04-25T06:19:50Z</time></trkpt><trkpt lat="43.47633968411971" lon="11.426353498691157"><ele>465.0</ele><time>2026-04-25T06:19:52Z</time></trkpt><trkpt lat="43.47641492426508" lon="11.42635493010284"><ele>465.0</ele><time>2026-04-25T06:19:53Z</time></trkpt><trkpt lat="43.4764863500556" lon="11.426360129506369"><ele>465.0</ele><time>2026-04-25T06:19:54Z</time></trkpt><trkpt lat="43.47655858913663" lon="11.426366920374432"><ele>468.0</ele><time>2026-04-25T06:19:55Z</time></trkpt><trkpt lat="43.47664076186279" lon="11.426381435313846"><ele>471.0</ele><time>2026-04-25T06:19:56Z</time></trkpt><trkpt lat="43.47673405311971" lon="11.426389670769058"><ele>474.0</ele><time>2026-04-25T06:19:57Z</time></trkpt><trkpt lat="43.47679979590547" lon="11.426397345010566"><ele>477.0</ele><time>2026-04-25T06:19:58Z</time></trkpt><trkpt lat="43.47693077634033" lon="11.426419841614761"><ele>480.0</ele><time>2026-04-25T06:20:00Z</time></trkpt><trkpt lat="43.47700602481713" lon="11.426435870033963"><ele>482.1666666666667</ele><time>2026-04-25T06:20:01Z</time></trkpt><trkpt lat="43.477134311290584" lon="11.426453036759257"><ele>484.33333333333337</ele><time>2026-04-25T06:20:03Z</time></trkpt><trkpt lat="43.477205894337494" lon="11.42645501152725"><ele>486.5</ele><time>2026-04-25T06:20:04Z</time></trkpt><trkpt lat="43.477277533430176" lon="11.426457055539908"><ele>488.6666666666667</ele><time>2026-04-25T06:20:05Z</time></trkpt><trkpt lat="43.477345697040334" lon="11.426458599473285"><ele>490.83333333333337</ele><time>2026-04-25T06:20:06Z</time></trkpt><trkpt lat="43.47741406858715" lon="11.426452943223358"><ele>493.0</ele><time>2026-04-25T06:20:07Z</time></trkpt><trkpt lat="43.47748242638413" lon="11.426429588310574"><ele>493.00000000000006</ele><time>2026-04-25T06:20:08Z</time></trkpt><trkpt lat="43.477551091324806" lon="11.426415294927288"><ele>493.0</ele><time>2026-04-25T06:20:09Z</time></trkpt><trkpt lat="43.47765866285852" lon="11.426321234033743"><ele>493.0</ele><time>2026-04-25T06:20:11Z</time></trkpt><trkpt lat="43.477699114935355" lon="11.426235030510874"><ele>493.0</ele><time>2026-04-25T06:20:12Z</time></trkpt><trkpt lat="43.47772600391048" lon="11.426150563519695"><ele>493.00000000000006</ele><time>2026-04-25T06:20:13Z</time></trkpt><trkpt lat="43.47772856121925" lon="11.426042921049428"><ele>493.0</ele><time>2026-04-25T06:20:14Z</time></trkpt><trkpt lat="43.47773056460877" lon="11.425924641446418"><ele>494.50000000000006</ele><time>2026-04-25T06:20:15Z</time></trkpt><trkpt lat="43.477730050039696" lon="11.425797875467325"><ele>496.0</ele><time>2026-04-25T06:20:16Z</time></trkpt><trkpt lat="43.477729475357414" lon="11.425674927172212"><ele>497.5</ele><time>2026-04-25T06:20:17Z</time></trkpt><trkpt lat="43.47773058361496" lon="11.425552974484642"><ele>499.0</ele><time>2026-04-25T06:20:18Z</time></trkpt><trkpt lat="43.47773452216423" lon="11.425436896143374"><ele>500.50000000000006</ele><time>2026-04-25T06:20:19Z</time></trkpt><trkpt lat="43.47774591177024" lon="11.425334508557528"><ele>502.0</ele><time>2026-04-25T06:20:20Z</time></trkpt><trkpt lat="43.47776609470804" lon="11.42524119881431"><ele>502.5714285714285</ele><time>2026-04-25T06:20:21Z</time></trkpt><trkpt lat="43.47781015843565" lon="11.42511875548701"><ele>503.1428571428571</ele><time>2026-04-25T06:20:23Z</time></trkpt><trkpt lat="43.47784634454525" lon="11.425030850825252"><ele>503.7142857142857</ele><time>2026-04-25T06:20:24Z</time></trkpt><trkpt lat="43.477887688851865" lon="11.424948450182377"><ele>504.2857142857143</ele><time>2026-04-25T06:20:25Z</time></trkpt><trkpt lat="43.477936304506784" lon="11.42487303283452"><ele>504.8571428571429</ele><time>2026-04-25T06:20:26Z</time></trkpt><trkpt lat="43.477974770412054" lon="11.424801757514418"><ele>505.4285714285715</ele><time>2026-04-25T06:20:27Z</time></trkpt><trkpt lat="43.478032268574644" lon="11.424756031936973"><ele>506.00000000000006</ele><time>2026-04-25T06:20:28Z</time></trkpt><trkpt lat="43.47809963730979" lon="11.424709428513282"><ele>508.4</ele><time>2026-04-25T06:20:29Z</time></trkpt><trkpt lat="43.47820689135361" lon="11.424679977234913"><ele>510.8</ele><time>2026-04-25T06:20:31Z</time></trkpt><trkpt lat="43.47825740483405" lon="11.424622996635593"><ele>513.1999999999999</ele><time>2026-04-25T06:20:32Z</time></trkpt><trkpt lat="43.47835814329931" lon="11.424553053445248"><ele>515.6</ele><time>2026-04-25T06:20:34Z</time></trkpt><trkpt lat="43.47847533750958" lon="11.424486854554303"><ele>518.0</ele><time>2026-04-25T06:20:36Z</time></trkpt><trkpt lat="43.47853566511065" lon="11.424445144248281"><ele>518.6666666666666</ele><time>2026-04-25T06:20:37Z</time></trkpt><trkpt lat="43.478598669400405" lon="11.424401583286693"><ele>519.3333333333333</ele><time>2026-04-25T06:20:38Z</time></trkpt><trkpt lat="43.478670024733724" lon="11.424351454408022"><ele>520.0</ele><time>2026-04-25T06:20:39Z</time></trkpt><trkpt lat="43.47873939555682" lon="11.424300159872274"><ele>520.6666666666666</ele><time>2026-04-25T06:20:40Z</time></trkpt><trkpt lat="43.47880326991143" lon="11.424231328154981"><ele>521.3333333333334</ele><time>2026-04-25T06:20:41Z</time></trkpt><trkpt lat="43.47887426023221" lon="11.424184657647581"><ele>522.0</ele><time>2026-04-25T06:20:42Z</time></trkpt><trkpt lat="43.478937706728004" lon="11.42411295112719"><ele>523.2</ele><time>2026-04-25T06:20:43Z</time></trkpt><trkpt lat="43.47900484880091" lon="11.424021294240497"><ele>524.4000000000001</ele><time>2026-04-25T06:20:44Z</time></trkpt><trkpt lat="43.47908781641646" lon="11.42393973020579"><ele>525.5999999999999</ele><time>2026-04-25T06:20:45Z</time></trkpt><trkpt lat="43.47917543768028" lon="11.423810861367857"><ele>526.8</ele><time>2026-04-25T06:20:46Z</time></trkpt><trkpt lat="43.47924043506033" lon="11.423705001031005"><ele>528.0</ele><time>2026-04-25T06:20:47Z</time></trkpt><trkpt lat="43.47929029473574" lon="11.423618974275492"><ele>529.1999999999999</ele><time>2026-04-25T06:20:48Z</time></trkpt><trkpt lat="43.47933116208213" lon="11.4235459640862"><ele>530.4</ele><time>2026-04-25T06:20:49Z</time></trkpt><trkpt lat="43.479369151708156" lon="11.423471573805386"><ele>531.5999999999999</ele><time>2026-04-25T06:20:50Z</time></trkpt><trkpt lat="43.47943361118757" lon="11.423342117978804"><ele>532.8</ele><time>2026-04-25T06:20:52Z</time></trkpt><trkpt lat="43.47951225939789" lon="11.423202443292826"><ele>534.0</ele><time>2026-04-25T06:20:54Z</time></trkpt><trkpt lat="43.47958618186307" lon="11.423089251625958"><ele>533.8</ele><time>2026-04-25T06:20:56Z</time></trkpt><trkpt lat="43.479625183800955" lon="11.42301450084521"><ele>533.5999999999999</ele><time>2026-04-25T06:21:04Z</time></trkpt><trkpt lat="43.479698800993745" lon="11.422943323575353"><ele>533.4</ele><time>2026-04-25T06:21:06Z</time></trkpt><trkpt lat="43.47975180732961" lon="11.422877947977726"><ele>533.1999999999999</ele><time>2026-04-25T06:21:07Z</time></trkpt><trkpt lat="43.47983621817395" lon="11.422774587986224"><ele>533.0</ele><time>2026-04-25T06:21:08Z</time></trkpt><trkpt lat="43.479920825647156" lon="11.422674120035474"><ele>533.0</ele><time>2026-04-25T06:21:09Z</time></trkpt><trkpt lat="43.48002796967897" lon="11.422536857249868"><ele>533.0</ele><time>2026-04-25T06:21:10Z</time></trkpt><trkpt lat="43.480139541124984" lon="11.422437274102604"><ele>533.0</ele><time>2026-04-25T06:21:11Z</time></trkpt><trkpt lat="43.48022578099711" lon="11.422337267466856"><ele>533.0</ele><time>2026-04-25T06:21:12Z</time></trkpt><trkpt lat="43.4803286115185" lon="11.422260082849713"><ele>533.0</ele><time>2026-04-25T06:21:13Z</time></trkpt><trkpt lat="43.480425037232216" lon="11.422154840781422"><ele>533.0</ele><time>2026-04-25T06:21:14Z</time></trkpt><trkpt lat="43.480540877944485" lon="11.422069320421453"><ele>533.0</ele><time>2026-04-25T06:21:15Z</time></trkpt><trkpt lat="43.48066799601792" lon="11.421989784378285"><ele>533.0</ele><time>2026-04-25T06:21:16Z</time></trkpt><trkpt lat="43.48079226912039" lon="11.421889899964048"><ele>533.25</ele><time>2026-04-25T06:21:17Z</time></trkpt><trkpt lat="43.480912154658036" lon="11.421788461916627"><ele>533.5</ele><time>2026-04-25T06:21:18Z</time></trkpt><trkpt lat="43.48103325868673" lon="11.421706748789957"><ele>533.75</ele><time>2026-04-25T06:21:19Z</time></trkpt><trkpt lat="43.48115047105977" lon="11.421614433672074"><ele>534.0</ele><time>2026-04-25T06:21:20Z</time></trkpt><trkpt lat="43.48127427850913" lon="11.421503540682354"><ele>534.0</ele><time>2026-04-25T06:21:21Z</time></trkpt><trkpt lat="43.481411212442985" lon="11.421387629138648"><ele>534.0</ele><time>2026-04-25T06:21:22Z</time></trkpt><trkpt lat="43.481541182989616" lon="11.421280599302133"><ele>534.0</ele><time>2026-04-25T06:21:23Z</time></trkpt><trkpt lat="43.48167321961989" lon="11.421175982396907"><ele>535.0</ele><time>2026-04-25T06:21:24Z</time></trkpt><trkpt lat="43.48181094691273" lon="11.421066521660256"><ele>536.0</ele><time>2026-04-25T06:21:25Z</time></trkpt><trkpt lat="43.48194579818569" lon="11.420960598466854"><ele>537.0</ele><time>2026-04-25T06:21:26Z</time></trkpt><trkpt lat="43.482084185796886" lon="11.420850803936885"><ele>539.3333333333334</ele><time>2026-04-25T06:21:27Z</time></trkpt><trkpt lat="43.48222665132342" lon="11.420742703915627"><ele>541.6666666666667</ele><time>2026-04-25T06:21:28Z</time></trkpt><trkpt lat="43.48238073028416" lon="11.420625611064786"><ele>544.0</ele><time>2026-04-25T06:21:29Z</time></trkpt><trkpt lat="43.482540538814824" lon="11.42051236693348"><ele>544.3333333333334</ele><time>2026-04-25T06:21:30Z</time></trkpt><trkpt lat="43.482690594810975" lon="11.420411081192475"><ele>544.6666666666666</ele><time>2026-04-25T06:21:31Z</time></trkpt><trkpt lat="43.48284779987672" lon="11.420305780549077"><ele>545.0</ele><time>2026-04-25T06:21:32Z</time></trkpt><trkpt lat="43.483001555273574" lon="11.420203683182088"><ele>545.0</ele><time>2026-04-25T06:21:33Z</time></trkpt><trkpt lat="43.48314927343557" lon="11.420108603895653"><ele>545.0</ele><time>2026-04-25T06:21:34Z</time></trkpt><trkpt lat="43.483286931924994" lon="11.420019740257986"><ele>545.0</ele><time>2026-04-25T06:21:35Z</time></trkpt><trkpt lat="43.48342520816676" lon="11.41992881641121"><ele>545.0</ele><time>2026-04-25T06:21:36Z</time></trkpt><trkpt lat="43.48355048398562" lon="11.419850586707383"><ele>545.0</ele><time>2026-04-25T06:21:37Z</time></trkpt><trkpt lat="43.483665198838914" lon="11.419776898964123"><ele>545.0</ele><time>2026-04-25T06:21:38Z</time></trkpt><trkpt lat="43.48377297663542" lon="11.419709311258638"><ele>545.0</ele><time>2026-04-25T06:21:39Z</time></trkpt><trkpt lat="43.483870693610235" lon="11.419649793296701"><ele>545.5</ele><time>2026-04-25T06:21:40Z</time></trkpt><trkpt lat="43.483960974268584" lon="11.41959677136398"><ele>546.0</ele><time>2026-04-25T06:21:41Z</time></trkpt><trkpt lat="43.48404115156325" lon="11.419551982314456"><ele>546.5</ele><time>2026-04-25T06:21:42Z</time></trkpt><trkpt lat="43.48410102754551" lon="11.419519420037778"><ele>547.0</ele><time>2026-04-25T06:21:43Z</time></trkpt><trkpt lat="43.48420026596321" lon="11.419481313549904"><ele>547.5</ele><time>2026-04-25T06:21:45Z</time></trkpt><trkpt lat="43.48428541901098" lon="11.419467917781251"><ele>548.0</ele><time>2026-04-25T06:21:48Z</time></trkpt><trkpt lat="43.48420440617378" lon="11.419486589874166"><ele>548.0</ele><time>2026-04-25T06:25:20Z</time></trkpt><trkpt lat="43.48411211606635" lon="11.419499019659437"><ele>548.0</ele><time>2026-04-25T06:25:22Z</time></trkpt><trkpt lat="43.484025247613886" lon="11.419539920326772"><ele>548.0</ele><time>2026-04-25T06:25:23Z</time></trkpt><trkpt lat="43.484239237206765" lon="11.419774051543794"><ele>551.0</ele><time>2026-04-25T06:25:24Z</time></trkpt><trkpt lat="43.48419614641872" lon="11.419855905643193"><ele>554.0</ele><time>2026-04-25T06:25:25Z</time></trkpt><trkpt lat="43.483898013800605" lon="11.420335505873405"><ele>554.0</ele><time>2026-04-25T06:25:26Z</time></trkpt><trkpt lat="43.48380165720921" lon="11.420429733771536"><ele>554.0</ele><time>2026-04-25T06:25:28Z</time></trkpt><trkpt lat="43.4837452922438" lon="11.420492751454429"><ele>554.0</ele><time>2026-04-25T06:25:29Z</time></trkpt><trkpt lat="43.48362461567395" lon="11.4206078250222"><ele>554.0</ele><time>2026-04-25T06:25:31Z</time></trkpt><trkpt lat="43.48350445130844" lon="11.420664413341372"><ele>553.5</ele><time>2026-04-25T06:25:33Z</time></trkpt><trkpt lat="43.48341930104328" lon="11.420703626307592"><ele>553.0</ele><time>2026-04-25T06:25:34Z</time></trkpt><trkpt lat="43.48300705545532" lon="11.420194015710136"><ele>551.6666666666667</ele><time>2026-04-25T06:25:35Z</time></trkpt><trkpt lat="43.48294013712417" lon="11.420239474863488"><ele>550.3333333333334</ele><time>2026-04-25T06:25:36Z</time></trkpt><trkpt lat="43.48287240378323" lon="11.420281567047935"><ele>549.0</ele><time>2026-04-25T06:25:37Z</time></trkpt><trkpt lat="43.482806072556585" lon="11.420325484210082"><ele>547.6666666666666</ele><time>2026-04-25T06:25:38Z</time></trkpt><trkpt lat="43.48273715251963" lon="11.420371486077531"><ele>546.3333333333333</ele><time>2026-04-25T06:25:39Z</time></trkpt><trkpt lat="43.48267092956519" lon="11.420418130482695"><ele>545.0</ele><time>2026-04-25T06:25:40Z</time></trkpt><trkpt lat="43.4825989717582" lon="11.420460801768145"><ele>544.8333333333333</ele><time>2026-04-25T06:25:41Z</time></trkpt><trkpt lat="43.48253258892904" lon="11.420507043205049"><ele>544.6666666666666</ele><time>2026-04-25T06:25:42Z</time></trkpt><trkpt lat="43.48246316640786" lon="11.42055401757733"><ele>544.5</ele><time>2026-04-25T06:25:43Z</time></trkpt><trkpt lat="43.4823923711265" lon="11.420606679825708"><ele>544.3333333333334</ele><time>2026-04-25T06:25:44Z</time></trkpt><trkpt lat="43.48232384453522" lon="11.420655957617681"><ele>544.1666666666667</ele><time>2026-04-25T06:25:45Z</time></trkpt><trkpt lat="43.48225245770715" lon="11.420706295512266"><ele>544.0</ele><time>2026-04-25T06:25:46Z</time></trkpt><trkpt lat="43.482179191767116" lon="11.420741239600328"><ele>544.0</ele><time>2026-04-25T06:25:47Z</time></trkpt><trkpt lat="43.48211558237671" lon="11.420811089825657"><ele>544.0</ele><time>2026-04-25T06:25:48Z</time></trkpt><trkpt lat="43.48204732984917" lon="11.42085736104687"><ele>544.0</ele><time>2026-04-25T06:25:49Z</time></trkpt><trkpt lat="43.48198207901898" lon="11.420910287747356"><ele>544.0</ele><time>2026-04-25T06:25:50Z</time></trkpt><trkpt lat="43.481916931387694" lon="11.420959404873814"><ele>544.0</ele><time>2026-04-25T06:25:51Z</time></trkpt><trkpt lat="43.48184845720449" lon="11.421013059266626"><ele>544.0</ele><time>2026-04-25T06:25:52Z</time></trkpt><trkpt lat="43.481784319412625" lon="11.421062997004235"><ele>542.8333333333334</ele><time>2026-04-25T06:25:53Z</time></trkpt><trkpt lat="43.48171642683338" lon="11.421106306544345"><ele>541.6666666666667</ele><time>2026-04-25T06:25:54Z</time></trkpt><trkpt lat="43.481646263941286" lon="11.421160847714699"><ele>540.5</ele><time>2026-04-25T06:25:55Z</time></trkpt><trkpt lat="43.48157365193955" lon="11.421218337038809"><ele>539.3333333333334</ele><time>2026-04-25T06:25:56Z</time></trkpt><trkpt lat="43.481484440055524" lon="11.42128404339936"><ele>538.1666666666666</ele><time>2026-04-25T06:25:57Z</time></trkpt><trkpt lat="43.481407274399075" lon="11.42134683021826"><ele>537.0</ele><time>2026-04-25T06:25:58Z</time></trkpt><trkpt lat="43.48134057473247" lon="11.421401728455164"><ele>537.1666666666666</ele><time>2026-04-25T06:25:59Z</time></trkpt><trkpt lat="43.48127335363604" lon="11.421457290777148"><ele>537.3333333333334</ele><time>2026-04-25T06:26:00Z</time></trkpt><trkpt lat="43.48120557013279" lon="11.421516208305865"><ele>537.5</ele><time>2026-04-25T06:26:01Z</time></trkpt><trkpt lat="43.481136269630404" lon="11.421583113656727"><ele>537.6666666666667</ele><time>2026-04-25T06:26:02Z</time></trkpt><trkpt lat="43.48107520545375" lon="11.421639594470559"><ele>537.8333333333334</ele><time>2026-04-25T06:26:03Z</time></trkpt><trkpt lat="43.48100349444649" lon="11.42169181704288"><ele>538.0</ele><time>2026-04-25T06:26:04Z</time></trkpt><trkpt lat="43.4809394746222" lon="11.421740899611217"><ele>538.0</ele><time>2026-04-25T06:26:05Z</time></trkpt><trkpt lat="43.48087245438808" lon="11.421792234427253"><ele>538.0</ele><time>2026-04-25T06:26:06Z</time></trkpt><trkpt lat="43.48080694381052" lon="11.421844651378247"><ele>538.0</ele><time>2026-04-25T06:26:07Z</time></trkpt><trkpt lat="43.48074357611209" lon="11.421895839319363"><ele>538.0</ele><time>2026-04-25T06:26:08Z</time></trkpt><trkpt lat="43.48067280938798" lon="11.421953582552664"><ele>538.0</ele><time>2026-04-25T06:26:09Z</time></trkpt><trkpt lat="43.48060069643145" lon="11.422000414893846"><ele>538.0</ele><time>2026-04-25T06:26:10Z</time></trkpt><trkpt lat="43.48052424459611" lon="11.422059635856158"><ele>538.0</ele><time>2026-04-25T06:26:11Z</time></trkpt><trkpt lat="43.48044300020254" lon="11.422110907428957"><ele>538.0</ele><time>2026-04-25T06:26:12Z</time></trkpt><trkpt lat="43.480359997402495" lon="11.422165525671298"><ele>538.0</ele><time>2026-04-25T06:26:13Z</time></trkpt><trkpt lat="43.48028369703512" lon="11.422219437148218"><ele>538.0</ele><time>2026-04-25T06:26:14Z</time></trkpt><trkpt lat="43.48020901569967" lon="11.422276008313881"><ele>538.0</ele><time>2026-04-25T06:26:15Z</time></trkpt><trkpt lat="43.48015241559795" lon="11.422348900255283"><ele>538.0</ele><time>2026-04-25T06:26:16Z</time></trkpt><trkpt lat="43.48008543158963" lon="11.422410556074665"><ele>537.1666666666667</ele><time>2026-04-25T06:26:17Z</time></trkpt><trkpt lat="43.48001932797889" lon="11.422483653204313"><ele>536.3333333333334</ele><time>2026-04-25T06:26:18Z</time></trkpt><trkpt lat="43.47995153373857" lon="11.422559392465454"><ele>535.5</ele><time>2026-04-25T06:26:19Z</time></trkpt><trkpt lat="43.47989114165579" lon="11.422638643405536"><ele>534.6666666666666</ele><time>2026-04-25T06:26:20Z</time></trkpt><trkpt lat="43.47982625317845" lon="11.422713715451572"><ele>533.8333333333333</ele><time>2026-04-25T06:26:21Z</time></trkpt><trkpt lat="43.47976227234741" lon="11.422785352380531"><ele>533.0</ele><time>2026-04-25T06:26:22Z</time></trkpt><trkpt lat="43.47969833371383" lon="11.422860657517948"><ele>533.0</ele><time>2026-04-25T06:26:23Z</time></trkpt><trkpt lat="43.47963992372121" lon="11.422930917447347"><ele>533.0</ele><time>2026-04-25T06:26:24Z</time></trkpt><trkpt lat="43.479579269837735" lon="11.423010440162027"><ele>533.0</ele><time>2026-04-25T06:26:25Z</time></trkpt><trkpt lat="43.47953135049762" lon="11.423082930189832"><ele>533.0</ele><time>2026-04-25T06:26:26Z</time></trkpt><trkpt lat="43.47947628337171" lon="11.423177457142641"><ele>533.0</ele><time>2026-04-25T06:26:27Z</time></trkpt><trkpt lat="43.479427857989954" lon="11.423261494177742"><ele>533.0</ele><time>2026-04-25T06:26:28Z</time></trkpt><trkpt lat="43.47938264815319" lon="11.423346059446907"><ele>533.1999999999999</ele><time>2026-04-25T06:26:29Z</time></trkpt><trkpt lat="43.47933780276883" lon="11.423435492885762"><ele>533.4</ele><time>2026-04-25T06:26:30Z</time></trkpt><trkpt lat="43.47929856235137" lon="11.423518210700893"><ele>533.5999999999999</ele><time>2026-04-25T06:26:31Z</time></trkpt><trkpt lat="43.47922875840309" lon="11.42363971258643"><ele>533.8</ele><time>2026-04-25T06:26:33Z</time></trkpt><trkpt lat="43.479160201871565" lon="11.423741635286637"><ele>534.0</ele><time>2026-04-25T06:26:35Z</time></trkpt><trkpt lat="43.47909412597956" lon="11.423857034280191"><ele>532.5</ele><time>2026-04-25T06:26:37Z</time></trkpt><trkpt lat="43.47900681007082" lon="11.42397701819307"><ele>531.0</ele><time>2026-04-25T06:26:39Z</time></trkpt><trkpt lat="43.47892446633409" lon="11.42408174095104"><ele>529.5</ele><time>2026-04-25T06:26:41Z</time></trkpt><trkpt lat="43.47883247693622" lon="11.424179892669672"><ele>528.0</ele><time>2026-04-25T06:26:43Z</time></trkpt><trkpt lat="43.47872994798093" lon="11.424259364346314"><ele>527.0</ele><time>2026-04-25T06:26:45Z</time></trkpt><trkpt lat="43.47861848384601" lon="11.424334039778284"><ele>526.0</ele><time>2026-04-25T06:26:47Z</time></trkpt><trkpt lat="43.478556925936246" lon="11.42437706543393"><ele>525.0</ele><time>2026-04-25T06:26:48Z</time></trkpt><trkpt lat="43.47849470308113" lon="11.424416329490548"><ele>524.0</ele><time>2026-04-25T06:26:49Z</time></trkpt><trkpt lat="43.47843751008551" lon="11.424454312936291"><ele>523.0</ele><time>2026-04-25T06:26:50Z</time></trkpt><trkpt lat="43.47837639959035" lon="11.424494243571983"><ele>522.0</ele><time>2026-04-25T06:26:51Z</time></trkpt><trkpt lat="43.47827569931227" lon="11.424569574826975"><ele>522.0</ele><time>2026-04-25T06:26:53Z</time></trkpt><trkpt lat="43.478179926641815" lon="11.424639883341689"><ele>522.0</ele><time>2026-04-25T06:26:55Z</time></trkpt><trkpt lat="43.47810740618471" lon="11.424681199220577"><ele>522.0</ele><time>2026-04-25T06:26:57Z</time></trkpt><trkpt lat="43.478044510487564" lon="11.424701783871386"><ele>522.0</ele><time>2026-04-25T06:26:59Z</time></trkpt><trkpt lat="43.47797374100122" lon="11.424728908328024"><ele>522.0</ele><time>2026-04-25T06:27:15Z</time></trkpt><trkpt lat="43.47792880118923" lon="11.424546129881442"><ele>519.2</ele><time>2026-04-25T06:27:17Z</time></trkpt><trkpt lat="43.477869790277204" lon="11.424453069223357"><ele>516.4000000000001</ele><time>2026-04-25T06:27:19Z</time></trkpt><trkpt lat="43.47779347745656" lon="11.424330841553369"><ele>513.5999999999999</ele><time>2026-04-25T06:27:21Z</time></trkpt><trkpt lat="43.47771882390324" lon="11.424211271471675"><ele>510.79999999999995</ele><time>2026-04-25T06:27:23Z</time></trkpt><trkpt lat="43.477635909447635" lon="11.424100416277717"><ele>508.0</ele><time>2026-04-25T06:27:25Z</time></trkpt><trkpt lat="43.47755112066174" lon="11.423942513004588"><ele>508.0</ele><time>2026-04-25T06:27:27Z</time></trkpt><trkpt lat="43.47747197421058" lon="11.423865174798461"><ele>507.99999999999994</ele><time>2026-04-25T06:27:28Z</time></trkpt><trkpt lat="43.477404377406984" lon="11.42376971491669"><ele>507.99999999999994</ele><time>2026-04-25T06:27:29Z</time></trkpt><trkpt lat="43.47732827236296" lon="11.423665951077169"><ele>508.0</ele><time>2026-04-25T06:27:30Z</time></trkpt><trkpt lat="43.47724624425254" lon="11.423542593797567"><ele>508.0</ele><time>2026-04-25T06:27:31Z</time></trkpt><trkpt lat="43.47716222732673" lon="11.423424957798034"><ele>507.5</ele><time>2026-04-25T06:27:32Z</time></trkpt><trkpt lat="43.47707590257025" lon="11.42330882002557"><ele>507.0</ele><time>2026-04-25T06:27:33Z</time></trkpt><trkpt lat="43.47698871390394" lon="11.42319682325136"><ele>506.5</ele><time>2026-04-25T06:27:34Z</time></trkpt><trkpt lat="43.47690664083" lon="11.423089224956959"><ele>506.0</ele><time>2026-04-25T06:27:35Z</time></trkpt><trkpt lat="43.47683877216135" lon="11.422977911032707"><ele>505.5</ele><time>2026-04-25T06:27:36Z</time></trkpt><trkpt lat="43.4767520137729" lon="11.422898338566982"><ele>505.0</ele><time>2026-04-25T06:27:37Z</time></trkpt><trkpt lat="43.4766491893036" lon="11.422843242982735"><ele>504.5</ele><time>2026-04-25T06:27:38Z</time></trkpt><trkpt lat="43.47654351575821" lon="11.422776396180183"><ele>504.0</ele><time>2026-04-25T06:27:39Z</time></trkpt><trkpt lat="43.4764097003873" lon="11.4226936138288"><ele>504.5</ele><time>2026-04-25T06:27:40Z</time></trkpt><trkpt lat="43.476258575485836" lon="11.422608346366736"><ele>505.0</ele><time>2026-04-25T06:27:41Z</time></trkpt><trkpt lat="43.47612084839373" lon="11.422525568684216"><ele>505.5</ele><time>2026-04-25T06:27:42Z</time></trkpt><trkpt lat="43.476003271001396" lon="11.422453711851285"><ele>506.0</ele><time>2026-04-25T06:27:43Z</time></trkpt><trkpt lat="43.47589708392813" lon="11.422384950472784"><ele>506.0</ele><time>2026-04-25T06:27:44Z</time></trkpt><trkpt lat="43.47579519617728" lon="11.422351093290281"><ele>506.0</ele><time>2026-04-25T06:27:45Z</time></trkpt><trkpt lat="43.47569595118195" lon="11.422324090730388"><ele>506.0</ele><time>2026-04-25T06:27:46Z</time></trkpt><trkpt lat="43.47559546196129" lon="11.42232312653016"><ele>506.0</ele><time>2026-04-25T06:27:47Z</time></trkpt><trkpt lat="43.47548822410857" lon="11.422342953520987"><ele>506.0</ele><time>2026-04-25T06:27:48Z</time></trkpt><trkpt lat="43.47537649737281" lon="11.422383835125501"><ele>508.75</ele><time>2026-04-25T06:27:49Z</time></trkpt><trkpt lat="43.47525622483816" lon="11.422452605265583"><ele>511.5</ele><time>2026-04-25T06:27:50Z</time></trkpt><trkpt lat="43.47513071098809" lon="11.422530703577312"><ele>514.25</ele><time>2026-04-25T06:27:51Z</time></trkpt><trkpt lat="43.47501892775079" lon="11.42259102984235"><ele>517.0</ele><time>2026-04-25T06:27:52Z</time></trkpt><trkpt lat="43.47491710189723" lon="11.422622406258116"><ele>517.0</ele><time>2026-04-25T06:27:53Z</time></trkpt><trkpt lat="43.47482346903796" lon="11.422626966449231"><ele>517.0</ele><time>2026-04-25T06:27:54Z</time></trkpt><trkpt lat="43.47472492427248" lon="11.422585553709492"><ele>517.0</ele><time>2026-04-25T06:27:55Z</time></trkpt><trkpt lat="43.474628335962564" lon="11.422555403051351"><ele>517.0</ele><time>2026-04-25T06:27:56Z</time></trkpt><trkpt lat="43.474529178697914" lon="11.422521676626452"><ele>517.0</ele><time>2026-04-25T06:27:57Z</time></trkpt><trkpt lat="43.4744470826999" lon="11.422493753268407"><ele>517.5</ele><time>2026-04-25T06:27:58Z</time></trkpt><trkpt lat="43.47436685790157" lon="11.4224664663276"><ele>518.0</ele><time>2026-04-25T06:27:59Z</time></trkpt><trkpt lat="43.47428348085512" lon="11.422439306789725"><ele>518.5</ele><time>2026-04-25T06:28:00Z</time></trkpt><trkpt lat="43.47419658375939" lon="11.422415074690422"><ele>519.0</ele><time>2026-04-25T06:28:01Z</time></trkpt><trkpt lat="43.474108060410146" lon="11.422402217886743"><ele>519.5</ele><time>2026-04-25T06:28:02Z</time></trkpt><trkpt lat="43.47402966591413" lon="11.422396938793808"><ele>520.0</ele><time>2026-04-25T06:28:03Z</time></trkpt><trkpt lat="43.47395211731949" lon="11.422387176612697"><ele>520.0</ele><time>2026-04-25T06:28:04Z</time></trkpt><trkpt lat="43.473865382623515" lon="11.422386078071776"><ele>520.0</ele><time>2026-04-25T06:28:05Z</time></trkpt><trkpt lat="43.47376843834786" lon="11.422356315848097"><ele>520.0</ele><time>2026-04-25T06:28:06Z</time></trkpt><trkpt lat="43.473681666392466" lon="11.42230512073762"><ele>520.0</ele><time>2026-04-25T06:28:07Z</time></trkpt><trkpt lat="43.473586812128346" lon="11.422271688495288"><ele>520.0</ele><time>2026-04-25T06:28:08Z</time></trkpt><trkpt lat="43.4734868014867" lon="11.42225938172446"><ele>519.6</ele><time>2026-04-25T06:28:09Z</time></trkpt><trkpt lat="43.47338309864052" lon="11.422213943577592"><ele>519.2</ele><time>2026-04-25T06:28:10Z</time></trkpt><trkpt lat="43.47327552394082" lon="11.42216743001661"><ele>518.8</ele><time>2026-04-25T06:28:11Z</time></trkpt><trkpt lat="43.473185013288344" lon="11.422089838151525"><ele>518.4</ele><time>2026-04-25T06:28:12Z</time></trkpt><trkpt lat="43.47309738593694" lon="11.422026658672035"><ele>518.0</ele><time>2026-04-25T06:28:13Z</time></trkpt><trkpt lat="43.47301931558816" lon="11.421957723762333"><ele>517.75</ele><time>2026-04-25T06:28:14Z</time></trkpt><trkpt lat="43.472935626608525" lon="11.421855038408438"><ele>517.5</ele><time>2026-04-25T06:28:15Z</time></trkpt><trkpt lat="43.47283075608544" lon="11.42171499602465"><ele>517.25</ele><time>2026-04-25T06:28:16Z</time></trkpt><trkpt lat="43.4727191578607" lon="11.421579266516963"><ele>517.0</ele><time>2026-04-25T06:28:17Z</time></trkpt><trkpt lat="43.47260718631037" lon="11.421470361449167"><ele>517.0</ele><time>2026-04-25T06:28:18Z</time></trkpt><trkpt lat="43.47251314573301" lon="11.421396909799302"><ele>517.0</ele><time>2026-04-25T06:28:19Z</time></trkpt><trkpt lat="43.47241006031227" lon="11.42135221385125"><ele>517.0</ele><time>2026-04-25T06:28:20Z</time></trkpt><trkpt lat="43.472307261990224" lon="11.421265455204187"><ele>517.0</ele><time>2026-04-25T06:28:21Z</time></trkpt><trkpt lat="43.472191896971296" lon="11.421207534717444"><ele>518.0</ele><time>2026-04-25T06:28:22Z</time></trkpt><trkpt lat="43.47208430874317" lon="11.421154726393537"><ele>519.0</ele><time>2026-04-25T06:28:23Z</time></trkpt><trkpt lat="43.47199461917514" lon="11.421108943121082"><ele>520.0</ele><time>2026-04-25T06:28:24Z</time></trkpt><trkpt lat="43.47191693326574" lon="11.421047138605156"><ele>521.0</ele><time>2026-04-25T06:28:25Z</time></trkpt><trkpt lat="43.471833962466974" lon="11.42096474761488"><ele>522.0</ele><time>2026-04-25T06:28:26Z</time></trkpt><trkpt lat="43.471749562279314" lon="11.420861570785311"><ele>522.0</ele><time>2026-04-25T06:28:27Z</time></trkpt><trkpt lat="43.47159365078833" lon="11.420657034144002"><ele>522.0</ele><time>2026-04-25T06:28:29Z</time></trkpt><trkpt lat="43.47151894492813" lon="11.420548039885253"><ele>522.0</ele><time>2026-04-25T06:28:30Z</time></trkpt><trkpt lat="43.47144757746374" lon="11.42043014985461"><ele>522.0</ele><time>2026-04-25T06:28:31Z</time></trkpt><trkpt lat="43.47138808376894" lon="11.420313510379904"><ele>521.2</ele><time>2026-04-25T06:28:32Z</time></trkpt><trkpt lat="43.471326518750786" lon="11.420199669092595"><ele>520.4000000000001</ele><time>2026-04-25T06:28:33Z</time></trkpt><trkpt lat="43.47126330144617" lon="11.420093484881608"><ele>519.5999999999999</ele><time>2026-04-25T06:28:34Z</time></trkpt><trkpt lat="43.47118809463994" lon="11.420000959705849"><ele>518.8</ele><time>2026-04-25T06:28:35Z</time></trkpt><trkpt lat="43.47114062410696" lon="11.41989437221291"><ele>518.0</ele><time>2026-04-25T06:28:36Z</time></trkpt><trkpt lat="43.471096747444726" lon="11.419810456383766"><ele>517.0</ele><time>2026-04-25T06:28:37Z</time></trkpt><trkpt lat="43.4710479198687" lon="11.419749124594748"><ele>516.0</ele><time>2026-04-25T06:28:38Z</time></trkpt><trkpt lat="43.47098994210724" lon="11.419676189668502"><ele>515.0</ele><time>2026-04-25T06:28:39Z</time></trkpt><trkpt lat="43.47091698776779" lon="11.419579711056207"><ele>514.0</ele><time>2026-04-25T06:28:40Z</time></trkpt><trkpt lat="43.470859686891295" lon="11.419463165479103"><ele>513.0</ele><time>2026-04-25T06:28:41Z</time></trkpt><trkpt lat="43.47079840667633" lon="11.419339183238996"><ele>511.59999999999997</ele><time>2026-04-25T06:28:42Z</time></trkpt><trkpt lat="43.47073442988907" lon="11.41923123322028"><ele>510.19999999999993</ele><time>2026-04-25T06:28:43Z</time></trkpt><trkpt lat="43.47066465984774" lon="11.419130784597433"><ele>508.8</ele><time>2026-04-25T06:28:44Z</time></trkpt><trkpt lat="43.47060269470478" lon="11.419021683864575"><ele>507.4</ele><time>2026-04-25T06:28:45Z</time></trkpt><trkpt lat="43.47054318924341" lon="11.418915922528289"><ele>506.0</ele><time>2026-04-25T06:28:46Z</time></trkpt><trkpt lat="43.470489109074244" lon="11.41881795535154"><ele>505.3333333333333</ele><time>2026-04-25T06:28:47Z</time></trkpt><trkpt lat="43.47044002326156" lon="11.418728858720916"><ele>504.66666666666663</ele><time>2026-04-25T06:28:48Z</time></trkpt><trkpt lat="43.470393815489864" lon="11.418651719090851"><ele>504.0</ele><time>2026-04-25T06:28:49Z</time></trkpt><trkpt lat="43.47031586969915" lon="11.418545944089516"><ele>503.33333333333337</ele><time>2026-04-25T06:28:51Z</time></trkpt><trkpt lat="43.47025885042762" lon="11.418460839649185"><ele>502.6666666666667</ele><time>2026-04-25T06:28:53Z</time></trkpt><trkpt lat="43.47018928169158" lon="11.418494503059808"><ele>502.0</ele><time>2026-04-25T06:28:56Z</time></trkpt><trkpt lat="43.47012582895413" lon="11.418500673839667"><ele>502.0</ele><time>2026-04-25T06:30:17Z</time></trkpt><trkpt lat="43.470107350851364" lon="11.418640912576727"><ele>502.0</ele><time>2026-04-25T06:30:22Z</time></trkpt><trkpt lat="43.47001968453542" lon="11.418795423926634"><ele>502.0</ele><time>2026-04-25T06:30:24Z</time></trkpt><trkpt lat="43.46995379735572" lon="11.418896102276943"><ele>502.0</ele><time>2026-04-25T06:30:25Z</time></trkpt><trkpt lat="43.469881804437655" lon="11.419016017843738"><ele>502.40000000000003</ele><time>2026-04-25T06:30:26Z</time></trkpt><trkpt lat="43.46980800978298" lon="11.419138806804103"><ele>502.80000000000007</ele><time>2026-04-25T06:30:27Z</time></trkpt><trkpt lat="43.4697353399115" lon="11.419252206717458"><ele>503.2</ele><time>2026-04-25T06:30:28Z</time></trkpt><trkpt lat="43.46968137316513" lon="11.41935013026885"><ele>503.6</ele><time>2026-04-25T06:30:29Z</time></trkpt><trkpt lat="43.46966285005576" lon="11.419446881829023"><ele>504.0</ele><time>2026-04-25T06:30:30Z</time></trkpt><trkpt lat="43.46966384387754" lon="11.419554747726243"><ele>503.25</ele><time>2026-04-25T06:30:31Z</time></trkpt><trkpt lat="43.46968310246405" lon="11.419675979586756"><ele>502.5</ele><time>2026-04-25T06:30:32Z</time></trkpt><trkpt lat="43.46972384541835" lon="11.419799755195628"><ele>501.75</ele><time>2026-04-25T06:30:33Z</time></trkpt><trkpt lat="43.46978870320211" lon="11.419933368605975"><ele>501.0</ele><time>2026-04-25T06:30:34Z</time></trkpt><trkpt lat="43.469880334721765" lon="11.420100183855084"><ele>501.0</ele><time>2026-04-25T06:30:35Z</time></trkpt><trkpt lat="43.469969659551275" lon="11.420277548143588"><ele>501.0</ele><time>2026-04-25T06:30:36Z</time></trkpt><trkpt lat="43.47004654829541" lon="11.420442146625415"><ele>501.0</ele><time>2026-04-25T06:30:37Z</time></trkpt><trkpt lat="43.47011946447967" lon="11.420595480195443"><ele>501.0</ele><time>2026-04-25T06:30:38Z</time></trkpt><trkpt lat="43.470189602500135" lon="11.420743509800435"><ele>499.4</ele><time>2026-04-25T06:30:39Z</time></trkpt><trkpt lat="43.47025223578817" lon="11.420875038816618"><ele>497.8</ele><time>2026-04-25T06:30:40Z</time></trkpt><trkpt lat="43.47029647782359" lon="11.420979761157692"><ele>496.19999999999993</ele><time>2026-04-25T06:30:41Z</time></trkpt><trkpt lat="43.47032402362823" lon="11.421096386491385"><ele>494.59999999999997</ele><time>2026-04-25T06:30:42Z</time></trkpt><trkpt lat="43.47034895511633" lon="11.42121787943927"><ele>493.0</ele><time>2026-04-25T06:30:43Z</time></trkpt><trkpt lat="43.47030893295564" lon="11.421343582457002"><ele>493.0</ele><time>2026-04-25T06:30:44Z</time></trkpt><trkpt lat="43.470250678771066" lon="11.42144774241723"><ele>493.0</ele><time>2026-04-25T06:30:45Z</time></trkpt><trkpt lat="43.470157969804056" lon="11.421536586763784"><ele>493.0</ele><time>2026-04-25T06:30:46Z</time></trkpt><trkpt lat="43.47005428879397" lon="11.421615750712144"><ele>493.0</ele><time>2026-04-25T06:30:47Z</time></trkpt><trkpt lat="43.46993840256626" lon="11.421698283301684"><ele>493.0</ele><time>2026-04-25T06:30:48Z</time></trkpt><trkpt lat="43.469826434471976" lon="11.421774788516503"><ele>493.0</ele><time>2026-04-25T06:30:49Z</time></trkpt><trkpt lat="43.46971516931598" lon="11.421851662937918"><ele>493.0</ele><time>2026-04-25T06:30:50Z</time></trkpt><trkpt lat="43.46959903516517" lon="11.421932487052906"><ele>493.0</ele><time>2026-04-25T06:30:51Z</time></trkpt><trkpt lat="43.46948148761031" lon="11.422016144106415"><ele>492.25</ele><time>2026-04-25T06:30:52Z</time></trkpt><trkpt lat="43.469359794778555" lon="11.422107047459184"><ele>491.5</ele><time>2026-04-25T06:30:53Z</time></trkpt><trkpt lat="43.46923647638541" lon="11.422197670498068"><ele>490.75</ele><time>2026-04-25T06:30:54Z</time></trkpt><trkpt lat="43.46911858722454" lon="11.422283338340835"><ele>490.0</ele><time>2026-04-25T06:30:55Z</time></trkpt><trkpt lat="43.46900256441448" lon="11.422377530228355"><ele>490.0</ele><time>2026-04-25T06:30:56Z</time></trkpt><trkpt lat="43.468881958781836" lon="11.422453147061928"><ele>490.0</ele><time>2026-04-25T06:30:57Z</time></trkpt><trkpt lat="43.46876926489929" lon="11.422519358836315"><ele>490.0</ele><time>2026-04-25T06:30:58Z</time></trkpt><trkpt lat="43.46866461011736" lon="11.42259831102109"><ele>490.0</ele><time>2026-04-25T06:30:59Z</time></trkpt><trkpt lat="43.46856275259993" lon="11.422675153167145"><ele>486.5</ele><time>2026-04-25T06:31:00Z</time></trkpt><trkpt lat="43.46845538272659" lon="11.422755675695507"><ele>483.0</ele><time>2026-04-25T06:31:01Z</time></trkpt><trkpt lat="43.46835791340574" lon="11.422850622322088"><ele>479.5</ele><time>2026-04-25T06:31:02Z</time></trkpt><trkpt lat="43.46825733196301" lon="11.422918535435963"><ele>476.0</ele><time>2026-04-25T06:31:03Z</time></trkpt><trkpt lat="43.468156291152496" lon="11.42297816498776"><ele>476.6</ele><time>2026-04-25T06:31:04Z</time></trkpt><trkpt lat="43.46804740989217" lon="11.423025881747977"><ele>477.20000000000005</ele><time>2026-04-25T06:31:05Z</time></trkpt><trkpt lat="43.467937645372075" lon="11.42306587759844"><ele>477.79999999999995</ele><time>2026-04-25T06:31:06Z</time></trkpt><trkpt lat="43.467832224107795" lon="11.42308469846598"><ele>478.4</ele><time>2026-04-25T06:31:07Z</time></trkpt><trkpt lat="43.46774727125787" lon="11.423103137838263"><ele>479.0</ele><time>2026-04-25T06:31:08Z</time></trkpt><trkpt lat="43.46768658219247" lon="11.4231397695747"><ele>478.99999999999994</ele><time>2026-04-25T06:31:09Z</time></trkpt><trkpt lat="43.4676416906658" lon="11.423212566285375"><ele>479.0</ele><time>2026-04-25T06:31:10Z</time></trkpt><trkpt lat="43.46762816818371" lon="11.423318920839044"><ele>479.0</ele><time>2026-04-25T06:31:11Z</time></trkpt><trkpt lat="43.46763445108927" lon="11.423435167133224"><ele>479.0</ele><time>2026-04-25T06:31:12Z</time></trkpt><trkpt lat="43.467677434302225" lon="11.42354256395896"><ele>478.99999999999994</ele><time>2026-04-25T06:31:13Z</time></trkpt><trkpt lat="43.46775601519754" lon="11.423624170825649"><ele>479.0</ele><time>2026-04-25T06:31:14Z</time></trkpt><trkpt lat="43.46787623833207" lon="11.423715763415201"><ele>476.5</ele><time>2026-04-25T06:31:15Z</time></trkpt><trkpt lat="43.46801539382725" lon="11.423830120246873"><ele>474.0</ele><time>2026-04-25T06:31:16Z</time></trkpt><trkpt lat="43.468142413678414" lon="11.423942929493666"><ele>471.5</ele><time>2026-04-25T06:31:17Z</time></trkpt><trkpt lat="43.46825446291145" lon="11.424044129551055"><ele>469.0</ele><time>2026-04-25T06:31:18Z</time></trkpt><trkpt lat="43.46835949460629" lon="11.424138637624523"><ele>469.0</ele><time>2026-04-25T06:31:19Z</time></trkpt><trkpt lat="43.46845422756601" lon="11.424221441592852"><ele>469.0</ele><time>2026-04-25T06:31:20Z</time></trkpt><trkpt lat="43.4685571672388" lon="11.424301872639845"><ele>469.0</ele><time>2026-04-25T06:31:21Z</time></trkpt><trkpt lat="43.468682230380516" lon="11.424328706905012"><ele>469.0</ele><time>2026-04-25T06:31:22Z</time></trkpt><trkpt lat="43.468807433771914" lon="11.424349873952407"><ele>468.5</ele><time>2026-04-25T06:31:23Z</time></trkpt><trkpt lat="43.46893288871289" lon="11.424371108808055"><ele>468.0</ele><time>2026-04-25T06:31:24Z</time></trkpt><trkpt lat="43.46905471591428" lon="11.42438995931036"><ele>467.5</ele><time>2026-04-25T06:31:25Z</time></trkpt><trkpt lat="43.46917380458496" lon="11.424410575900625"><ele>467.0</ele><time>2026-04-25T06:31:26Z</time></trkpt><trkpt lat="43.46929182832523" lon="11.424433273815302"><ele>467.0</ele><time>2026-04-25T06:31:27Z</time></trkpt><trkpt lat="43.4694022544265" lon="11.424449809479473"><ele>467.00000000000006</ele><time>2026-04-25T06:31:28Z</time></trkpt><trkpt lat="43.46951100948373" lon="11.424509262992679"><ele>467.00000000000006</ele><time>2026-04-25T06:31:29Z</time></trkpt><trkpt lat="43.469610928259776" lon="11.424583001080656"><ele>467.0</ele><time>2026-04-25T06:31:30Z</time></trkpt><trkpt lat="43.46969985476307" lon="11.424649319681569"><ele>467.0</ele><time>2026-04-25T06:31:31Z</time></trkpt><trkpt lat="43.46977084667939" lon="11.424745906600613"><ele>465.25</ele><time>2026-04-25T06:31:32Z</time></trkpt><trkpt lat="43.46982039887524" lon="11.424878808680685"><ele>463.5</ele><time>2026-04-25T06:31:33Z</time></trkpt><trkpt lat="43.46983557019164" lon="11.425050551996314"><ele>461.75</ele><time>2026-04-25T06:31:34Z</time></trkpt><trkpt lat="43.469850231434535" lon="11.425203948074756"><ele>460.0</ele><time>2026-04-25T06:31:35Z</time></trkpt><trkpt lat="43.469862937440325" lon="11.425362781030804"><ele>457.6</ele><time>2026-04-25T06:31:36Z</time></trkpt><trkpt lat="43.46987263236518" lon="11.425521557167354"><ele>455.2</ele><time>2026-04-25T06:31:37Z</time></trkpt><trkpt lat="43.46987712248987" lon="11.42567516014448"><ele>452.79999999999995</ele><time>2026-04-25T06:31:38Z</time></trkpt><trkpt lat="43.469880614499836" lon="11.425824619406399"><ele>450.4</ele><time>2026-04-25T06:31:39Z</time></trkpt><trkpt lat="43.46988716976388" lon="11.425974078094589"><ele>448.0</ele><time>2026-04-25T06:31:40Z</time></trkpt><trkpt lat="43.46988763948296" lon="11.426122289618416"><ele>448.0</ele><time>2026-04-25T06:31:41Z</time></trkpt><trkpt lat="43.46988091417919" lon="11.426270053960542"><ele>447.99999999999994</ele><time>2026-04-25T06:31:42Z</time></trkpt><trkpt lat="43.469868894486" lon="11.42641721500084"><ele>447.99999999999994</ele><time>2026-04-25T06:31:43Z</time></trkpt><trkpt lat="43.4698516578285" lon="11.426563183129295"><ele>448.0</ele><time>2026-04-25T06:31:44Z</time></trkpt><trkpt lat="43.469849075732824" lon="11.426713128917342"><ele>448.0</ele><time>2026-04-25T06:31:45Z</time></trkpt><trkpt lat="43.469828516476746" lon="11.4268566633784"><ele>446.0</ele><time>2026-04-25T06:31:46Z</time></trkpt><trkpt lat="43.46978650152369" lon="11.426996228767981"><ele>444.0</ele><time>2026-04-25T06:31:47Z</time></trkpt><trkpt lat="43.4697590536863" lon="11.427143261502229"><ele>442.0</ele><time>2026-04-25T06:31:48Z</time></trkpt><trkpt lat="43.469718425889575" lon="11.427292346236161"><ele>440.0</ele><time>2026-04-25T06:31:49Z</time></trkpt><trkpt lat="43.469661722887565" lon="11.427436947752952"><ele>435.5</ele><time>2026-04-25T06:31:50Z</time></trkpt><trkpt lat="43.46958471581729" lon="11.427577797572978"><ele>431.0</ele><time>2026-04-25T06:31:51Z</time></trkpt><trkpt lat="43.469501421615774" lon="11.427711469597993"><ele>426.5</ele><time>2026-04-25T06:31:52Z</time></trkpt><trkpt lat="43.469419716891366" lon="11.427848526897932"><ele>422.0</ele><time>2026-04-25T06:31:53Z</time></trkpt><trkpt lat="43.46933540129217" lon="11.427979676905137"><ele>421.75</ele><time>2026-04-25T06:31:54Z</time></trkpt><trkpt lat="43.46925043707933" lon="11.428110619219186"><ele>421.5</ele><time>2026-04-25T06:31:55Z</time></trkpt><trkpt lat="43.46916970966433" lon="11.42823959518217"><ele>421.25</ele><time>2026-04-25T06:31:56Z</time></trkpt><trkpt lat="43.46909030455462" lon="11.428369947725711"><ele>421.0</ele><time>2026-04-25T06:31:57Z</time></trkpt><trkpt lat="43.469012383106985" lon="11.428499164706428"><ele>421.0</ele><time>2026-04-25T06:31:58Z</time></trkpt><trkpt lat="43.468931911502395" lon="11.428628176529845"><ele>421.0</ele><time>2026-04-25T06:31:59Z</time></trkpt><trkpt lat="43.46885185874254" lon="11.428756421337628"><ele>421.0</ele><time>2026-04-25T06:32:00Z</time></trkpt><trkpt lat="43.468769145276895" lon="11.428887981486536"><ele>421.0</ele><time>2026-04-25T06:32:01Z</time></trkpt><trkpt lat="43.468685375325876" lon="11.429020131782863"><ele>417.75</ele><time>2026-04-25T06:32:02Z</time></trkpt><trkpt lat="43.46860389292687" lon="11.429149529948335"><ele>414.5</ele><time>2026-04-25T06:32:03Z</time></trkpt><trkpt lat="43.468525992154326" lon="11.429276982631032"><ele>411.25</ele><time>2026-04-25T06:32:04Z</time></trkpt><trkpt lat="43.46844953209895" lon="11.4294000826426"><ele>408.0</ele><time>2026-04-25T06:32:05Z</time></trkpt><trkpt lat="43.468371024288395" lon="11.429512064929249"><ele>408.0</ele><time>2026-04-25T06:32:06Z</time></trkpt><trkpt lat="43.468277487244215" lon="11.429610095508025"><ele>408.0</ele><time>2026-04-25T06:32:07Z</time></trkpt><trkpt lat="43.4681746772541" lon="11.429693059715985"><ele>408.0</ele><time>2026-04-25T06:32:08Z</time></trkpt><trkpt lat="43.46806892033541" lon="11.429761732033615"><ele>408.0</ele><time>2026-04-25T06:32:09Z</time></trkpt><trkpt lat="43.46796480467024" lon="11.429832565758325"><ele>405.5</ele><time>2026-04-25T06:32:10Z</time></trkpt><trkpt lat="43.467862020676066" lon="11.429904533608216"><ele>403.0</ele><time>2026-04-25T06:32:11Z</time></trkpt><trkpt lat="43.4677594501295" lon="11.429976525303582"><ele>400.5</ele><time>2026-04-25T06:32:12Z</time></trkpt><trkpt lat="43.467658638020396" lon="11.430048205328081"><ele>398.0</ele><time>2026-04-25T06:32:13Z</time></trkpt><trkpt lat="43.46755472150037" lon="11.430113446517527"><ele>398.0</ele><time>2026-04-25T06:32:14Z</time></trkpt><trkpt lat="43.4674518445714" lon="11.430178498889662"><ele>398.0</ele><time>2026-04-25T06:32:15Z</time></trkpt><trkpt lat="43.46736168602893" lon="11.430237975476599"><ele>398.0</ele><time>2026-04-25T06:32:16Z</time></trkpt><trkpt lat="43.467289750276656" lon="11.430287617152253"><ele>398.0</ele><time>2026-04-25T06:32:17Z</time></trkpt><trkpt lat="43.46722590938949" lon="11.430333263180026"><ele>398.0</ele><time>2026-04-25T06:32:18Z</time></trkpt><trkpt lat="43.467142101444054" lon="11.430391165630304"><ele>396.79999999999995</ele><time>2026-04-25T06:32:20Z</time></trkpt><trkpt lat="43.46722371340781" lon="11.430557255407466"><ele>395.6</ele><time>2026-04-25T06:32:26Z</time></trkpt><trkpt lat="43.46729420382279" lon="11.430588695518214"><ele>394.4</ele><time>2026-04-25T06:32:27Z</time></trkpt><trkpt lat="43.46736700032331" lon="11.430646353849127"><ele>393.20000000000005</ele><time>2026-04-25T06:32:28Z</time></trkpt><trkpt lat="43.46743551306213" lon="11.4306951711241"><ele>392.0</ele><time>2026-04-25T06:32:29Z</time></trkpt><trkpt lat="43.467509670018195" lon="11.430748338219107"><ele>392.0</ele><time>2026-04-25T06:32:30Z</time></trkpt><trkpt lat="43.467601664190376" lon="11.430812599509801"><ele>392.0</ele><time>2026-04-25T06:32:31Z</time></trkpt><trkpt lat="43.46768770055641" lon="11.430875395121944"><ele>392.0</ele><time>2026-04-25T06:32:32Z</time></trkpt><trkpt lat="43.467773671327905" lon="11.430939669070906"><ele>392.0</ele><time>2026-04-25T06:32:33Z</time></trkpt><trkpt lat="43.46785898913363" lon="11.431005261943179"><ele>392.0</ele><time>2026-04-25T06:32:34Z</time></trkpt><trkpt lat="43.467949742308" lon="11.43107283260103"><ele>391.6</ele><time>2026-04-25T06:32:35Z</time></trkpt><trkpt lat="43.46804258878581" lon="11.431144738737599"><ele>391.20000000000005</ele><time>2026-04-25T06:32:36Z</time></trkpt><trkpt lat="43.46813295441224" lon="11.431214325564463"><ele>390.8</ele><time>2026-04-25T06:32:37Z</time></trkpt><trkpt lat="43.468225188223535" lon="11.431283660963981"><ele>390.4</ele><time>2026-04-25T06:32:38Z</time></trkpt><trkpt lat="43.468306454840096" lon="11.431342205256913"><ele>390.0</ele><time>2026-04-25T06:32:39Z</time></trkpt><trkpt lat="43.46838361841606" lon="11.431401142797098"><ele>387.5</ele><time>2026-04-25T06:32:40Z</time></trkpt><trkpt lat="43.468457635440984" lon="11.431461944483164"><ele>385.0</ele><time>2026-04-25T06:32:41Z</time></trkpt><trkpt lat="43.468524532385985" lon="11.43152106641365"><ele>382.5</ele><time>2026-04-25T06:32:42Z</time></trkpt><trkpt lat="43.4685832846283" lon="11.431574033242057"><ele>380.0</ele><time>2026-04-25T06:32:43Z</time></trkpt><trkpt lat="43.468629267205614" lon="11.431643848330618"><ele>377.5</ele><time>2026-04-25T06:32:44Z</time></trkpt><trkpt lat="43.4686719129125" lon="11.43179275983145"><ele>375.0</ele><time>2026-04-25T06:32:46Z</time></trkpt><trkpt lat="43.46862344058521" lon="11.431925189794352"><ele>375.0</ele><time>2026-04-25T06:32:48Z</time></trkpt><trkpt lat="43.46856528944139" lon="11.431960897086778"><ele>375.0</ele><time>2026-04-25T06:32:49Z</time></trkpt><trkpt lat="43.46850102227108" lon="11.431971696983803"><ele>375.0</ele><time>2026-04-25T06:32:50Z</time></trkpt><trkpt lat="43.468384562112504" lon="11.43199947816892"><ele>375.0</ele><time>2026-04-25T06:32:52Z</time></trkpt><trkpt lat="43.46827574306241" lon="11.432068348979481"><ele>375.0</ele><time>2026-04-25T06:32:54Z</time></trkpt><trkpt lat="43.468193530621285" lon="11.432137437985668"><ele>373.1666666666667</ele><time>2026-04-25T06:32:56Z</time></trkpt><trkpt lat="43.46816556981792" lon="11.432240046121214"><ele>371.3333333333333</ele><time>2026-04-25T06:33:00Z</time></trkpt><trkpt lat="43.46824371321116" lon="11.432353596479919"><ele>369.5</ele><time>2026-04-25T06:33:02Z</time></trkpt><trkpt lat="43.46830596721426" lon="11.432409673017398"><ele>367.66666666666663</ele><time>2026-04-25T06:33:03Z</time></trkpt><trkpt lat="43.46835660221012" lon="11.432479144117991"><ele>365.8333333333333</ele><time>2026-04-25T06:33:04Z</time></trkpt><trkpt lat="43.468397100273215" lon="11.432560241534313"><ele>364.0</ele><time>2026-04-25T06:33:05Z</time></trkpt><trkpt lat="43.468421692511534" lon="11.43265650607517"><ele>364.0</ele><time>2026-04-25T06:33:06Z</time></trkpt><trkpt lat="43.468434237240004" lon="11.432746729586444"><ele>364.0</ele><time>2026-04-25T06:33:07Z</time></trkpt><trkpt lat="43.468455891895445" lon="11.432839205618032"><ele>364.0</ele><time>2026-04-25T06:33:08Z</time></trkpt><trkpt lat="43.4684806927824" lon="11.4329322530385"><ele>364.0</ele><time>2026-04-25T06:33:09Z</time></trkpt><trkpt lat="43.468513162838214" lon="11.433069736096199"><ele>364.0</ele><time>2026-04-25T06:33:11Z</time></trkpt><trkpt lat="43.468535238483405" lon="11.433153948163229"><ele>364.0</ele><time>2026-04-25T06:33:14Z</time></trkpt><trkpt lat="43.46840071587233" lon="11.433279755104433"><ele>363.0</ele><time>2026-04-25T06:33:18Z</time></trkpt><trkpt lat="43.468279509451826" lon="11.433334605302376"><ele>362.0</ele><time>2026-04-25T06:33:20Z</time></trkpt><trkpt lat="43.468211383070134" lon="11.433379836176861"><ele>361.0</ele><time>2026-04-25T06:33:21Z</time></trkpt><trkpt lat="43.4681439592886" lon="11.433434664393957"><ele>360.0</ele><time>2026-04-25T06:33:22Z</time></trkpt><trkpt lat="43.46808127779827" lon="11.433489941666503"><ele>359.0</ele><time>2026-04-25T06:33:23Z</time></trkpt><trkpt lat="43.46801585371334" lon="11.433552140357758"><ele>358.0</ele><time>2026-04-25T06:33:24Z</time></trkpt><trkpt lat="43.46795076571481" lon="11.433614459789126"><ele>357.5</ele><time>2026-04-25T06:33:25Z</time></trkpt><trkpt lat="43.46789087204398" lon="11.433683848115729"><ele>357.0</ele><time>2026-04-25T06:33:26Z</time></trkpt><trkpt lat="43.46783166488253" lon="11.433750157010573"><ele>356.5</ele><time>2026-04-25T06:33:27Z</time></trkpt><trkpt lat="43.46777047261247" lon="11.433815143780883"><ele>356.0</ele><time>2026-04-25T06:33:28Z</time></trkpt><trkpt lat="43.46770881331227" lon="11.433880584083441"><ele>355.5</ele><time>2026-04-25T06:33:29Z</time></trkpt><trkpt lat="43.467646484776616" lon="11.433947217536488"><ele>355.0</ele><time>2026-04-25T06:33:30Z</time></trkpt><trkpt lat="43.46758135041421" lon="11.434011343675635"><ele>354.8333333333333</ele><time>2026-04-25T06:33:31Z</time></trkpt><trkpt lat="43.46751114917788" lon="11.434072653844451"><ele>354.66666666666663</ele><time>2026-04-25T06:33:32Z</time></trkpt><trkpt lat="43.467436618026625" lon="11.434128534770068"><ele>354.5</ele><time>2026-04-25T06:33:33Z</time></trkpt><trkpt lat="43.46735991593583" lon="11.434177484934063"><ele>354.3333333333333</ele><time>2026-04-25T06:33:34Z</time></trkpt><trkpt lat="43.467275635429026" lon="11.434217033068055"><ele>354.1666666666667</ele><time>2026-04-25T06:33:35Z</time></trkpt><trkpt lat="43.46719054856346" lon="11.434254700385747"><ele>354.0</ele><time>2026-04-25T06:33:36Z</time></trkpt><trkpt lat="43.467098074226456" lon="11.43429109468461"><ele>353.4</ele><time>2026-04-25T06:33:37Z</time></trkpt><trkpt lat="43.467001253894075" lon="11.434320925560232"><ele>352.79999999999995</ele><time>2026-04-25T06:33:38Z</time></trkpt><trkpt lat="43.46690114810373" lon="11.434331533572143"><ele>352.20000000000005</ele><time>2026-04-25T06:33:39Z</time></trkpt><trkpt lat="43.466802005678915" lon="11.434341406770768"><ele>351.6</ele><time>2026-04-25T06:33:40Z</time></trkpt><trkpt lat="43.466700194322144" lon="11.434354523760241"><ele>351.0</ele><time>2026-04-25T06:33:41Z</time></trkpt><trkpt lat="43.46659824590761" lon="11.43435824946793"><ele>351.0</ele><time>2026-04-25T06:33:42Z</time></trkpt><trkpt lat="43.4664932865871" lon="11.434357303953595"><ele>351.0</ele><time>2026-04-25T06:33:43Z</time></trkpt><trkpt lat="43.466388927477354" lon="11.434354286590604"><ele>351.0</ele><time>2026-04-25T06:33:44Z</time></trkpt><trkpt lat="43.46628306585349" lon="11.434345856654556"><ele>351.0</ele><time>2026-04-25T06:33:45Z</time></trkpt><trkpt lat="43.46618458488029" lon="11.43432453717949"><ele>351.0</ele><time>2026-04-25T06:33:46Z</time></trkpt><trkpt lat="43.46608528202797" lon="11.4342962512031"><ele>350.4</ele><time>2026-04-25T06:33:47Z</time></trkpt><trkpt lat="43.465987559909564" lon="11.434261154615648"><ele>349.8</ele><time>2026-04-25T06:33:48Z</time></trkpt><trkpt lat="43.46588705196595" lon="11.434224390091888"><ele>349.2</ele><time>2026-04-25T06:33:49Z</time></trkpt><trkpt lat="43.46578790719362" lon="11.434186778694917"><ele>348.59999999999997</ele><time>2026-04-25T06:33:50Z</time></trkpt><trkpt lat="43.46568626609995" lon="11.434140870747465"><ele>348.0</ele><time>2026-04-25T06:33:51Z</time></trkpt><trkpt lat="43.465603360561055" lon="11.434057355614154"><ele>348.0</ele><time>2026-04-25T06:33:52Z</time></trkpt><trkpt lat="43.46551591935752" lon="11.433979327051993"><ele>348.0</ele><time>2026-04-25T06:33:53Z</time></trkpt><trkpt lat="43.46542176303135" lon="11.433903050694008"><ele>348.0</ele><time>2026-04-25T06:33:54Z</time></trkpt><trkpt lat="43.4653564441932" lon="11.433780868526048"><ele>348.0</ele><time>2026-04-25T06:33:55Z</time></trkpt><trkpt lat="43.46528286729593" lon="11.433665045691525"><ele>348.0</ele><time>2026-04-25T06:33:56Z</time></trkpt><trkpt lat="43.465209090913724" lon="11.433552471816077"><ele>348.0</ele><time>2026-04-25T06:33:57Z</time></trkpt><trkpt lat="43.465120931465655" lon="11.433455811429598"><ele>348.0</ele><time>2026-04-25T06:33:58Z</time></trkpt><trkpt lat="43.465036759689205" lon="11.433352835696745"><ele>348.0</ele><time>2026-04-25T06:33:59Z</time></trkpt><trkpt lat="43.46494634894242" lon="11.433263388170642"><ele>348.0</ele><time>2026-04-25T06:34:00Z</time></trkpt><trkpt lat="43.46485214076976" lon="11.433189393514276"><ele>348.0</ele><time>2026-04-25T06:34:01Z</time></trkpt><trkpt lat="43.46475835358726" lon="11.433115273526845"><ele>348.0</ele><time>2026-04-25T06:34:02Z</time></trkpt><trkpt lat="43.4646623610586" lon="11.433041497929228"><ele>348.0</ele><time>2026-04-25T06:34:03Z</time></trkpt><trkpt lat="43.46456698748593" lon="11.432964883322173"><ele>348.0</ele><time>2026-04-25T06:34:04Z</time></trkpt><trkpt lat="43.46447766059512" lon="11.432877370231795"><ele>348.0</ele><time>2026-04-25T06:34:05Z</time></trkpt><trkpt lat="43.464391131877036" lon="11.432784236375557"><ele>348.0</ele><time>2026-04-25T06:34:06Z</time></trkpt><trkpt lat="43.46430951711062" lon="11.432676679689735"><ele>348.25</ele><time>2026-04-25T06:34:07Z</time></trkpt><trkpt lat="43.46423775514495" lon="11.432550852854545"><ele>348.5</ele><time>2026-04-25T06:34:08Z</time></trkpt><trkpt lat="43.46417081259075" lon="11.432407450258966"><ele>348.75</ele><time>2026-04-25T06:34:09Z</time></trkpt><trkpt lat="43.464109078858684" lon="11.43226110451267"><ele>349.0</ele><time>2026-04-25T06:34:10Z</time></trkpt><trkpt lat="43.46404518179935" lon="11.432124736541908"><ele>350.2</ele><time>2026-04-25T06:34:11Z</time></trkpt><trkpt lat="43.46398551332551" lon="11.431986494178092"><ele>351.4</ele><time>2026-04-25T06:34:12Z</time></trkpt><trkpt lat="43.46393350294916" lon="11.431852373402915"><ele>352.6</ele><time>2026-04-25T06:34:13Z</time></trkpt><trkpt lat="43.46388502648151" lon="11.431717391059147"><ele>353.8</ele><time>2026-04-25T06:34:14Z</time></trkpt><trkpt lat="43.46384973226191" lon="11.431581832704065"><ele>355.0</ele><time>2026-04-25T06:34:15Z</time></trkpt><trkpt lat="43.46380388441085" lon="11.431465477985018"><ele>353.4</ele><time>2026-04-25T06:34:16Z</time></trkpt><trkpt lat="43.46375929277804" lon="11.431362097429911"><ele>351.8</ele><time>2026-04-25T06:34:17Z</time></trkpt><trkpt lat="43.46372204911744" lon="11.431273737158676"><ele>350.20000000000005</ele><time>2026-04-25T06:34:18Z</time></trkpt><trkpt lat="43.4636732799161" lon="11.431147132730189"><ele>348.6</ele><time>2026-04-25T06:34:20Z</time></trkpt><trkpt lat="43.46354721580895" lon="11.431119662005253"><ele>347.0</ele><time>2026-04-25T06:34:22Z</time></trkpt><trkpt lat="43.46346889288671" lon="11.431083842097571"><ele>347.0</ele><time>2026-04-25T06:34:24Z</time></trkpt><trkpt lat="43.46340649219621" lon="11.431120663996749"><ele>347.0</ele><time>2026-04-25T06:34:27Z</time></trkpt><trkpt lat="43.463357901055296" lon="11.43098851322186"><ele>347.0</ele><time>2026-04-25T06:39:22.001Z</time></trkpt><trkpt lat="43.463318452094114" lon="11.43087584457052"><ele>347.0</ele><time>2026-04-25T06:39:49.001Z</time></trkpt><trkpt lat="43.46336912057693" lon="11.43078871532653"><ele>347.0</ele><time>2026-04-25T06:39:51.001Z</time></trkpt><trkpt lat="43.463391762410325" lon="11.43068145059403"><ele>347.0</ele><time>2026-04-25T06:39:54.001Z</time></trkpt><trkpt lat="43.46329952184206" lon="11.43052119493881"><ele>348.0</ele><time>2026-04-25T06:39:56.001Z</time></trkpt><trkpt lat="43.46325786998878" lon="11.430444000372287"><ele>349.0</ele><time>2026-04-25T06:39:57.001Z</time></trkpt><trkpt lat="43.46320331156313" lon="11.430371840131249"><ele>350.0</ele><time>2026-04-25T06:39:58.001Z</time></trkpt><trkpt lat="43.463141285605566" lon="11.430277197742605"><ele>351.0</ele><time>2026-04-25T06:39:59.001Z</time></trkpt><trkpt lat="43.46308006061405" lon="11.430171920774844"><ele>352.0</ele><time>2026-04-25T06:40:00.001Z</time></trkpt><trkpt lat="43.463027615489935" lon="11.430049867473658"><ele>353.0</ele><time>2026-04-25T06:40:01.001Z</time></trkpt><trkpt lat="43.46296975265755" lon="11.429931683885252"><ele>351.59999999999997</ele><time>2026-04-25T06:40:02Z</time></trkpt><trkpt lat="43.46290094047466" lon="11.429821502032931"><ele>350.2</ele><time>2026-04-25T06:40:03Z</time></trkpt><trkpt lat="43.462828456980965" lon="11.429715331945056"><ele>348.8</ele><time>2026-04-25T06:40:04Z</time></trkpt><trkpt lat="43.46275316881992" lon="11.429617901058698"><ele>347.4</ele><time>2026-04-25T06:40:05Z</time></trkpt><trkpt lat="43.462676585625985" lon="11.429521127553128"><ele>346.0</ele><time>2026-04-25T06:40:06Z</time></trkpt><trkpt lat="43.46259718176966" lon="11.42942064971959"><ele>346.0</ele><time>2026-04-25T06:40:07Z</time></trkpt><trkpt lat="43.46251779480082" lon="11.429320388359947"><ele>346.0</ele><time>2026-04-25T06:40:08Z</time></trkpt><trkpt lat="43.46243627197934" lon="11.429219404541845"><ele>346.0</ele><time>2026-04-25T06:40:09Z</time></trkpt><trkpt lat="43.46235573375612" lon="11.429119455865925"><ele>346.0</ele><time>2026-04-25T06:40:10Z</time></trkpt><trkpt lat="43.46227367208579" lon="11.42901770759216"><ele>346.0</ele><time>2026-04-25T06:40:11Z</time></trkpt><trkpt lat="43.462191488671074" lon="11.42891139231088"><ele>345.0</ele><time>2026-04-25T06:40:12Z</time></trkpt><trkpt lat="43.46210617616389" lon="11.42880533454712"><ele>344.0</ele><time>2026-04-25T06:40:13Z</time></trkpt><trkpt lat="43.46201915017673" lon="11.42870090285993"><ele>343.0</ele><time>2026-04-25T06:40:14Z</time></trkpt><trkpt lat="43.46193070941349" lon="11.428595637504888"><ele>342.0</ele><time>2026-04-25T06:40:15Z</time></trkpt><trkpt lat="43.46184116294315" lon="11.428491038290074"><ele>342.0</ele><time>2026-04-25T06:40:16Z</time></trkpt><trkpt lat="43.461748522171476" lon="11.42838587795879"><ele>342.0</ele><time>2026-04-25T06:40:17Z</time></trkpt><trkpt lat="43.46165539843799" lon="11.428277053204505"><ele>342.0</ele><time>2026-04-25T06:40:18Z</time></trkpt><trkpt lat="43.46155792044598" lon="11.428173071270004"><ele>342.0</ele><time>2026-04-25T06:40:19Z</time></trkpt><trkpt lat="43.461459243399446" lon="11.428063491218142"><ele>341.5</ele><time>2026-04-25T06:40:20Z</time></trkpt><trkpt lat="43.46135781227387" lon="11.427957127401172"><ele>341.0</ele><time>2026-04-25T06:40:21Z</time></trkpt><trkpt lat="43.461259062939966" lon="11.427852064852056"><ele>340.5</ele><time>2026-04-25T06:40:22Z</time></trkpt><trkpt lat="43.461162549580045" lon="11.427752069310323"><ele>340.0</ele><time>2026-04-25T06:40:23Z</time></trkpt><trkpt lat="43.46106853172448" lon="11.42765657576506"><ele>340.0</ele><time>2026-04-25T06:40:24Z</time></trkpt><trkpt lat="43.46098114784214" lon="11.427564235419416"><ele>340.0</ele><time>2026-04-25T06:40:25Z</time></trkpt><trkpt lat="43.46090340288037" lon="11.427478367284538"><ele>340.0</ele><time>2026-04-25T06:40:26Z</time></trkpt><trkpt lat="43.46082649107459" lon="11.427397787085303"><ele>340.0</ele><time>2026-04-25T06:40:27Z</time></trkpt><trkpt lat="43.46074215056104" lon="11.427316194070398"><ele>340.0</ele><time>2026-04-25T06:40:28Z</time></trkpt><trkpt lat="43.46065017278342" lon="11.4272313868152"><ele>340.0</ele><time>2026-04-25T06:40:29Z</time></trkpt><trkpt lat="43.46054808088395" lon="11.42715454932774"><ele>340.0</ele><time>2026-04-25T06:40:30Z</time></trkpt><trkpt lat="43.46042903603531" lon="11.427085019441938"><ele>340.0</ele><time>2026-04-25T06:40:31Z</time></trkpt><trkpt lat="43.46030307947356" lon="11.427026691189507"><ele>340.0</ele><time>2026-04-25T06:40:32Z</time></trkpt><trkpt lat="43.46017289229314" lon="11.426970868521186"><ele>340.75</ele><time>2026-04-25T06:40:33Z</time></trkpt><trkpt lat="43.4600406364785" lon="11.426915628233798"><ele>341.5</ele><time>2026-04-25T06:40:34Z</time></trkpt><trkpt lat="43.45990790428188" lon="11.426858004153901"><ele>342.25</ele><time>2026-04-25T06:40:35Z</time></trkpt><trkpt lat="43.459772949740184" lon="11.426801296519356"><ele>343.0</ele><time>2026-04-25T06:40:36Z</time></trkpt><trkpt lat="43.4596387297554" lon="11.426740685331373"><ele>342.0</ele><time>2026-04-25T06:40:37Z</time></trkpt><trkpt lat="43.45950243114243" lon="11.426679749152122"><ele>341.0</ele><time>2026-04-25T06:40:38Z</time></trkpt><trkpt lat="43.45936696323142" lon="11.42662106129035"><ele>340.0</ele><time>2026-04-25T06:40:39Z</time></trkpt><trkpt lat="43.459239538401384" lon="11.426562625940262"><ele>339.0</ele><time>2026-04-25T06:40:40Z</time></trkpt><trkpt lat="43.459114430840245" lon="11.426506420622596"><ele>339.0</ele><time>2026-04-25T06:40:41Z</time></trkpt><trkpt lat="43.45898551948726" lon="11.426445704291803"><ele>339.0</ele><time>2026-04-25T06:40:42Z</time></trkpt><trkpt lat="43.458851137098165" lon="11.426384013382611"><ele>339.0</ele><time>2026-04-25T06:40:43Z</time></trkpt><trkpt lat="43.45871642202718" lon="11.426324771731773"><ele>339.0</ele><time>2026-04-25T06:40:44Z</time></trkpt><trkpt lat="43.458580989695285" lon="11.426265799141726"><ele>338.25</ele><time>2026-04-25T06:40:45Z</time></trkpt><trkpt lat="43.458451147719046" lon="11.426211745009763"><ele>337.5</ele><time>2026-04-25T06:40:46Z</time></trkpt><trkpt lat="43.45832364265589" lon="11.426155918261227"><ele>336.75</ele><time>2026-04-25T06:40:47Z</time></trkpt><trkpt lat="43.458192638555715" lon="11.426099534079407"><ele>336.0</ele><time>2026-04-25T06:40:48Z</time></trkpt><trkpt lat="43.45806448284226" lon="11.426044373762863"><ele>336.0</ele><time>2026-04-25T06:40:49Z</time></trkpt><trkpt lat="43.45793783104981" lon="11.42599046048325"><ele>336.0</ele><time>2026-04-25T06:40:50Z</time></trkpt><trkpt lat="43.45781473316545" lon="11.425915309710218"><ele>336.0</ele><time>2026-04-25T06:40:51Z</time></trkpt><trkpt lat="43.457686226794934" lon="11.425856697581"><ele>336.0</ele><time>2026-04-25T06:40:52Z</time></trkpt><trkpt lat="43.457555405466735" lon="11.425795109023555"><ele>336.0</ele><time>2026-04-25T06:40:53Z</time></trkpt><trkpt lat="43.457423856092944" lon="11.425735849620434"><ele>336.0</ele><time>2026-04-25T06:40:54Z</time></trkpt><trkpt lat="43.457291161549485" lon="11.425679241965964"><ele>336.0</ele><time>2026-04-25T06:40:55Z</time></trkpt><trkpt lat="43.45715516049844" lon="11.425626836243943"><ele>336.0</ele><time>2026-04-25T06:40:56Z</time></trkpt><trkpt lat="43.457017060530916" lon="11.425577968237198"><ele>337.5</ele><time>2026-04-25T06:40:57Z</time></trkpt><trkpt lat="43.456882437075095" lon="11.425540855069189"><ele>339.0</ele><time>2026-04-25T06:40:58Z</time></trkpt><trkpt lat="43.45674618686808" lon="11.425516135387092"><ele>340.5</ele><time>2026-04-25T06:40:59Z</time></trkpt><trkpt lat="43.45660957060716" lon="11.425499492954891"><ele>342.0</ele><time>2026-04-25T06:41:00Z</time></trkpt><trkpt lat="43.45647321912884" lon="11.425485913825764"><ele>340.75</ele><time>2026-04-25T06:41:01Z</time></trkpt><trkpt lat="43.456339789330805" lon="11.425472419259764"><ele>339.5</ele><time>2026-04-25T06:41:02Z</time></trkpt><trkpt lat="43.45622634695542" lon="11.425432852621453"><ele>338.25</ele><time>2026-04-25T06:41:03Z</time></trkpt><trkpt lat="43.456115577939244" lon="11.42536021878163"><ele>337.0</ele><time>2026-04-25T06:41:04Z</time></trkpt><trkpt lat="43.4559999033769" lon="11.42527563832621"><ele>337.0</ele><time>2026-04-25T06:41:05Z</time></trkpt><trkpt lat="43.45589850593761" lon="11.425142273614032"><ele>337.0</ele><time>2026-04-25T06:41:06.001Z</time></trkpt><trkpt lat="43.455785415157784" lon="11.425023144136343"><ele>337.0</ele><time>2026-04-25T06:41:07.001Z</time></trkpt><trkpt lat="43.45567688428999" lon="11.424908818096137"><ele>337.0</ele><time>2026-04-25T06:41:08.001Z</time></trkpt><trkpt lat="43.45556903994238" lon="11.424795215253383"><ele>337.0</ele><time>2026-04-25T06:41:09.001Z</time></trkpt><trkpt lat="43.45546360869785" lon="11.424684154600838"><ele>337.0</ele><time>2026-04-25T06:41:10.001Z</time></trkpt><trkpt lat="43.455361083688324" lon="11.424577219825776"><ele>337.0</ele><time>2026-04-25T06:41:11.001Z</time></trkpt><trkpt lat="43.45526092502419" lon="11.424475925248977"><ele>337.0</ele><time>2026-04-25T06:41:12.001Z</time></trkpt><trkpt lat="43.455166845864994" lon="11.42437759378848"><ele>336.20000000000005</ele><time>2026-04-25T06:41:13.001Z</time></trkpt><trkpt lat="43.455074492690045" lon="11.424279970767365"><ele>335.4</ele><time>2026-04-25T06:41:14.001Z</time></trkpt><trkpt lat="43.454986583986766" lon="11.424187045872083"><ele>334.6</ele><time>2026-04-25T06:41:15.001Z</time></trkpt><trkpt lat="43.45490651044634" lon="11.42410382925142"><ele>333.79999999999995</ele><time>2026-04-25T06:41:16.001Z</time></trkpt><trkpt lat="43.4548430872957" lon="11.424038608222762"><ele>333.0</ele><time>2026-04-25T06:41:17.001Z</time></trkpt><trkpt lat="43.45478888407261" lon="11.423982868602307"><ele>333.0</ele><time>2026-04-25T06:41:18.001Z</time></trkpt><trkpt lat="43.45471226950702" lon="11.423904083243503"><ele>333.0</ele><time>2026-04-25T06:41:20.001Z</time></trkpt><trkpt lat="43.45463561982961" lon="11.423852350875789"><ele>333.0</ele><time>2026-04-25T06:41:22.001Z</time></trkpt><trkpt lat="43.454566845802844" lon="11.423781220258356"><ele>333.0</ele><time>2026-04-25T06:41:24.001Z</time></trkpt><trkpt lat="43.454484154890125" lon="11.42367158809332"><ele>333.0</ele><time>2026-04-25T06:41:26.001Z</time></trkpt><trkpt lat="43.454421826811675" lon="11.423635894689742"><ele>333.0</ele><time>2026-04-25T06:41:27.001Z</time></trkpt><trkpt lat="43.45437110908215" lon="11.423572393140482"><ele>332.6666666666667</ele><time>2026-04-25T06:41:28.001Z</time></trkpt><trkpt lat="43.45431717457988" lon="11.423502868361117"><ele>332.3333333333333</ele><time>2026-04-25T06:41:29.001Z</time></trkpt><trkpt lat="43.454260201905385" lon="11.423422055315172"><ele>332.0</ele><time>2026-04-25T06:41:30.001Z</time></trkpt><trkpt lat="43.454204484202414" lon="11.423329344319736"><ele>331.66666666666663</ele><time>2026-04-25T06:41:31.001Z</time></trkpt><trkpt lat="43.454148330362" lon="11.423231733662103"><ele>331.3333333333333</ele><time>2026-04-25T06:41:32.001Z</time></trkpt><trkpt lat="43.45408830441599" lon="11.423141694832658"><ele>331.0</ele><time>2026-04-25T06:41:33.001Z</time></trkpt><trkpt lat="43.454025885364395" lon="11.423047288568409"><ele>331.8</ele><time>2026-04-25T06:41:34.001Z</time></trkpt><trkpt lat="43.453960054331" lon="11.422943630653794"><ele>332.6</ele><time>2026-04-25T06:41:35.001Z</time></trkpt><trkpt lat="43.45389742073304" lon="11.422843954847028"><ele>333.4</ele><time>2026-04-25T06:41:36.001Z</time></trkpt><trkpt lat="43.4538349625597" lon="11.422748409007172"><ele>334.2</ele><time>2026-04-25T06:41:37.001Z</time></trkpt><trkpt lat="43.45377134360421" lon="11.42265426791569"><ele>335.0</ele><time>2026-04-25T06:41:38.001Z</time></trkpt><trkpt lat="43.45371385457983" lon="11.42255739066141"><ele>334.4</ele><time>2026-04-25T06:41:39.001Z</time></trkpt><trkpt lat="43.45365058923554" lon="11.422464885520979"><ele>333.8</ele><time>2026-04-25T06:41:40Z</time></trkpt><trkpt lat="43.45358642516766" lon="11.422365949429066"><ele>333.20000000000005</ele><time>2026-04-25T06:41:41Z</time></trkpt><trkpt lat="43.45352993297976" lon="11.422255236838277"><ele>332.6</ele><time>2026-04-25T06:41:42Z</time></trkpt><trkpt lat="43.453461445414014" lon="11.422155622809516"><ele>332.0</ele><time>2026-04-25T06:41:43Z</time></trkpt><trkpt lat="43.45339768331094" lon="11.42205426472312"><ele>332.0</ele><time>2026-04-25T06:41:44Z</time></trkpt><trkpt lat="43.453328451235166" lon="11.421952345113096"><ele>332.0</ele><time>2026-04-25T06:41:45Z</time></trkpt><trkpt lat="43.45325718185461" lon="11.421844772443093"><ele>332.0</ele><time>2026-04-25T06:41:46Z</time></trkpt><trkpt lat="43.45318343823364" lon="11.421734182607354"><ele>332.0</ele><time>2026-04-25T06:41:47Z</time></trkpt><trkpt lat="43.45310730139918" lon="11.421623444045588"><ele>332.0</ele><time>2026-04-25T06:41:48Z</time></trkpt><trkpt lat="43.45302185720901" lon="11.42152432465557"><ele>332.75</ele><time>2026-04-25T06:41:49Z</time></trkpt><trkpt lat="43.45292499808679" lon="11.421437061690275"><ele>333.5</ele><time>2026-04-25T06:41:50Z</time></trkpt><trkpt lat="43.45281911646266" lon="11.42136177064589"><ele>334.25</ele><time>2026-04-25T06:41:51Z</time></trkpt><trkpt lat="43.45271380289599" lon="11.42128699198354"><ele>335.0</ele><time>2026-04-25T06:41:52Z</time></trkpt><trkpt lat="43.45261349830398" lon="11.421198820248696"><ele>335.0</ele><time>2026-04-25T06:41:53Z</time></trkpt><trkpt lat="43.45252335537435" lon="11.42109814001596"><ele>335.0</ele><time>2026-04-25T06:41:54Z</time></trkpt><trkpt lat="43.45243679159044" lon="11.420990732826445"><ele>335.0</ele><time>2026-04-25T06:41:55Z</time></trkpt><trkpt lat="43.45235369368199" lon="11.420878058257161"><ele>335.0</ele><time>2026-04-25T06:41:56Z</time></trkpt><trkpt lat="43.452270492706944" lon="11.420762142168913"><ele>335.0</ele><time>2026-04-25T06:41:57Z</time></trkpt><trkpt lat="43.45218995180832" lon="11.420641212750146"><ele>335.0</ele><time>2026-04-25T06:41:58Z</time></trkpt><trkpt lat="43.452111419504234" lon="11.420520649563572"><ele>335.0</ele><time>2026-04-25T06:41:59Z</time></trkpt><trkpt lat="43.452034797932626" lon="11.420400285266448"><ele>335.0</ele><time>2026-04-25T06:42:00Z</time></trkpt><trkpt lat="43.45195698518418" lon="11.420282740597337"><ele>334.2</ele><time>2026-04-25T06:42:01Z</time></trkpt><trkpt lat="43.45188614084533" lon="11.420166670341741"><ele>333.4</ele><time>2026-04-25T06:42:02Z</time></trkpt><trkpt lat="43.45181976172761" lon="11.42004857810049"><ele>332.6</ele><time>2026-04-25T06:42:03Z</time></trkpt><trkpt lat="43.451750665899006" lon="11.419934174410399"><ele>331.8</ele><time>2026-04-25T06:42:04Z</time></trkpt><trkpt lat="43.45167798763618" lon="11.419820103642715"><ele>331.0</ele><time>2026-04-25T06:42:05Z</time></trkpt><trkpt lat="43.45160188575629" lon="11.41970993081708"><ele>331.6</ele><time>2026-04-25T06:42:06Z</time></trkpt><trkpt lat="43.45151879880398" lon="11.419607809830131"><ele>332.20000000000005</ele><time>2026-04-25T06:42:07Z</time></trkpt><trkpt lat="43.45142854466939" lon="11.419516745055427"><ele>332.79999999999995</ele><time>2026-04-25T06:42:08Z</time></trkpt><trkpt lat="43.45133918959678" lon="11.419414239166372"><ele>333.4</ele><time>2026-04-25T06:42:09Z</time></trkpt><trkpt lat="43.4512498112673" lon="11.419333792031768"><ele>334.0</ele><time>2026-04-25T06:42:10Z</time></trkpt><trkpt lat="43.451168481016516" lon="11.419262226508176"><ele>332.4</ele><time>2026-04-25T06:42:11Z</time></trkpt><trkpt lat="43.451081534541835" lon="11.419198523335309"><ele>330.79999999999995</ele><time>2026-04-25T06:42:12Z</time></trkpt><trkpt lat="43.45097744463351" lon="11.419165520672259"><ele>329.20000000000005</ele><time>2026-04-25T06:42:13Z</time></trkpt><trkpt lat="43.45088273978798" lon="11.419124102522412"><ele>327.6</ele><time>2026-04-25T06:42:14Z</time></trkpt><trkpt lat="43.450784077357014" lon="11.419088460980564"><ele>326.0</ele><time>2026-04-25T06:42:15Z</time></trkpt><trkpt lat="43.45068195667135" lon="11.419060553515829"><ele>326.0</ele><time>2026-04-25T06:42:16Z</time></trkpt><trkpt lat="43.45058069791535" lon="11.419031935285977"><ele>326.0</ele><time>2026-04-25T06:42:17Z</time></trkpt><trkpt lat="43.450478004765394" lon="11.419005206795061"><ele>326.0</ele><time>2026-04-25T06:42:18Z</time></trkpt><trkpt lat="43.45038241795504" lon="11.418986536130957"><ele>326.0</ele><time>2026-04-25T06:42:19Z</time></trkpt><trkpt lat="43.45027471302322" lon="11.418973452828789"><ele>326.0</ele><time>2026-04-25T06:42:20Z</time></trkpt><trkpt lat="43.45015879422161" lon="11.418956607962738"><ele>325.5</ele><time>2026-04-25T06:42:21Z</time></trkpt><trkpt lat="43.45004280551884" lon="11.41892769514386"><ele>325.0</ele><time>2026-04-25T06:42:22Z</time></trkpt><trkpt lat="43.44992659522646" lon="11.41887598793107"><ele>324.5</ele><time>2026-04-25T06:42:23Z</time></trkpt><trkpt lat="43.44980755005129" lon="11.418823331016833"><ele>324.0</ele><time>2026-04-25T06:42:24Z</time></trkpt><trkpt lat="43.449686786769924" lon="11.418770604825122"><ele>325.75</ele><time>2026-04-25T06:42:25Z</time></trkpt><trkpt lat="43.4495685664368" lon="11.418712858156026"><ele>327.5</ele><time>2026-04-25T06:42:26Z</time></trkpt><trkpt lat="43.44944300939457" lon="11.418656808542895"><ele>329.25</ele><time>2026-04-25T06:42:27Z</time></trkpt><trkpt lat="43.44931725614584" lon="11.418608926433185"><ele>331.0</ele><time>2026-04-25T06:42:28Z</time></trkpt><trkpt lat="43.44918556118363" lon="11.418576164653574"><ele>331.0</ele><time>2026-04-25T06:42:29Z</time></trkpt><trkpt lat="43.44904990113004" lon="11.418555679096496"><ele>331.0</ele><time>2026-04-25T06:42:30Z</time></trkpt><trkpt lat="43.44891587059598" lon="11.41853882619166"><ele>331.0</ele><time>2026-04-25T06:42:31Z</time></trkpt><trkpt lat="43.44878343216973" lon="11.418531174738115"><ele>331.0</ele><time>2026-04-25T06:42:32Z</time></trkpt><trkpt lat="43.44865283741961" lon="11.418522924329126"><ele>331.0</ele><time>2026-04-25T06:42:33Z</time></trkpt><trkpt lat="43.44852486657951" lon="11.418506099702615"><ele>331.0</ele><time>2026-04-25T06:42:34Z</time></trkpt><trkpt lat="43.448402106251784" lon="11.418470420254717"><ele>331.0</ele><time>2026-04-25T06:42:35Z</time></trkpt><trkpt lat="43.44828254455255" lon="11.41840408887621"><ele>331.0</ele><time>2026-04-25T06:42:36Z</time></trkpt><trkpt lat="43.44816775296229" lon="11.418322378454112"><ele>331.0</ele><time>2026-04-25T06:42:37Z</time></trkpt><trkpt lat="43.44805952786167" lon="11.41822527505489"><ele>331.0</ele><time>2026-04-25T06:42:38Z</time></trkpt><trkpt lat="43.4479626788845" lon="11.418125899080499"><ele>331.0</ele><time>2026-04-25T06:42:39Z</time></trkpt><trkpt lat="43.44786419140303" lon="11.41802489925644"><ele>331.0</ele><time>2026-04-25T06:42:40Z</time></trkpt><trkpt lat="43.44776565400259" lon="11.41793032155507"><ele>332.75</ele><time>2026-04-25T06:42:41Z</time></trkpt><trkpt lat="43.44765865735239" lon="11.41784567609772"><ele>334.5</ele><time>2026-04-25T06:42:42Z</time></trkpt><trkpt lat="43.44754125986912" lon="11.417780195489941"><ele>336.25</ele><time>2026-04-25T06:42:43Z</time></trkpt><trkpt lat="43.44741766003083" lon="11.41773666692651"><ele>338.0</ele><time>2026-04-25T06:42:44Z</time></trkpt><trkpt lat="43.447286417454194" lon="11.417706425040821"><ele>338.0</ele><time>2026-04-25T06:42:45Z</time></trkpt><trkpt lat="43.44715657704989" lon="11.417674418859072"><ele>338.0</ele><time>2026-04-25T06:42:46Z</time></trkpt><trkpt lat="43.447026513207305" lon="11.417647906605389"><ele>338.0</ele><time>2026-04-25T06:42:47Z</time></trkpt><trkpt lat="43.44689791321607" lon="11.417610888175691"><ele>338.0</ele><time>2026-04-25T06:42:48Z</time></trkpt><trkpt lat="43.44676942021451" lon="11.417573607432216"><ele>338.5</ele><time>2026-04-25T06:42:49Z</time></trkpt><trkpt lat="43.446641664923085" lon="11.417540142407171"><ele>339.0</ele><time>2026-04-25T06:42:50Z</time></trkpt><trkpt lat="43.44651527055526" lon="11.417509384337771"><ele>339.5</ele><time>2026-04-25T06:42:51Z</time></trkpt><trkpt lat="43.44639178960537" lon="11.41747920121089"><ele>340.0</ele><time>2026-04-25T06:42:52Z</time></trkpt><trkpt lat="43.44627191867327" lon="11.417464807213955"><ele>343.0</ele><time>2026-04-25T06:42:53Z</time></trkpt><trkpt lat="43.446151010457086" lon="11.417471180815847"><ele>346.0</ele><time>2026-04-25T06:42:54Z</time></trkpt><trkpt lat="43.44603285223128" lon="11.417534031092147"><ele>349.0</ele><time>2026-04-25T06:42:55Z</time></trkpt><trkpt lat="43.44593673641304" lon="11.41763245603518"><ele>352.0</ele><time>2026-04-25T06:42:56Z</time></trkpt><trkpt lat="43.445856154481255" lon="11.417766413039065"><ele>352.0</ele><time>2026-04-25T06:42:57Z</time></trkpt><trkpt lat="43.44579058302644" lon="11.417925929360289"><ele>352.0</ele><time>2026-04-25T06:42:58Z</time></trkpt><trkpt lat="43.44573924107826" lon="11.41808954177018"><ele>352.0</ele><time>2026-04-25T06:42:59Z</time></trkpt><trkpt lat="43.44569603388698" lon="11.418260387589122"><ele>352.0</ele><time>2026-04-25T06:43:00Z</time></trkpt><trkpt lat="43.445657251448274" lon="11.418439241784604"><ele>349.5</ele><time>2026-04-25T06:43:01Z</time></trkpt><trkpt lat="43.44563248338553" lon="11.418619463218239"><ele>347.0</ele><time>2026-04-25T06:43:02Z</time></trkpt><trkpt lat="43.4456192708432" lon="11.4188069799118"><ele>344.5</ele><time>2026-04-25T06:43:03Z</time></trkpt><trkpt lat="43.44561908997339" lon="11.418992843243947"><ele>342.0</ele><time>2026-04-25T06:43:04Z</time></trkpt><trkpt lat="43.44562206012288" lon="11.419169663819073"><ele>341.40000000000003</ele><time>2026-04-25T06:43:05Z</time></trkpt><trkpt lat="43.445617243215146" lon="11.419335902402205"><ele>340.8</ele><time>2026-04-25T06:43:06Z</time></trkpt><trkpt lat="43.445598500949835" lon="11.419487397673185"><ele>340.2</ele><time>2026-04-25T06:43:07Z</time></trkpt><trkpt lat="43.445552637195235" lon="11.419611698465813"><ele>339.6</ele><time>2026-04-25T06:43:08Z</time></trkpt><trkpt lat="43.44547496233969" lon="11.419705392641305"><ele>339.0</ele><time>2026-04-25T06:43:09Z</time></trkpt><trkpt lat="43.44536234597953" lon="11.419777618524245"><ele>339.0</ele><time>2026-04-25T06:43:10Z</time></trkpt><trkpt lat="43.445237261425795" lon="11.41983669777665"><ele>339.0</ele><time>2026-04-25T06:43:11Z</time></trkpt><trkpt lat="43.445113177188276" lon="11.41990661395098"><ele>339.0</ele><time>2026-04-25T06:43:12Z</time></trkpt><trkpt lat="43.44498992560609" lon="11.419982355708475"><ele>339.0</ele><time>2026-04-25T06:43:13Z</time></trkpt><trkpt lat="43.44486418969657" lon="11.420055915858061"><ele>339.0</ele><time>2026-04-25T06:43:14Z</time></trkpt><trkpt lat="43.44474033777413" lon="11.42013166280551"><ele>339.0</ele><time>2026-04-25T06:43:15Z</time></trkpt><trkpt lat="43.44462346091012" lon="11.420223130948175"><ele>339.0</ele><time>2026-04-25T06:43:16Z</time></trkpt><trkpt lat="43.44452082982399" lon="11.42034191662857"><ele>339.0</ele><time>2026-04-25T06:43:17Z</time></trkpt><trkpt lat="43.44443059712196" lon="11.420481833301382"><ele>338.5</ele><time>2026-04-25T06:43:18Z</time></trkpt><trkpt lat="43.44434181024214" lon="11.420626416998092"><ele>338.0</ele><time>2026-04-25T06:43:19Z</time></trkpt><trkpt lat="43.44424407073493" lon="11.420766018649152"><ele>337.5</ele><time>2026-04-25T06:43:20Z</time></trkpt><trkpt lat="43.444131356933426" lon="11.420888650166205"><ele>337.0</ele><time>2026-04-25T06:43:21Z</time></trkpt><trkpt lat="43.44400636427796" lon="11.420991341658596"><ele>337.0</ele><time>2026-04-25T06:43:22Z</time></trkpt><trkpt lat="43.44387727357267" lon="11.421082811466446"><ele>337.0</ele><time>2026-04-25T06:43:23Z</time></trkpt><trkpt lat="43.443747253708985" lon="11.421170022763189"><ele>337.0</ele><time>2026-04-25T06:43:24Z</time></trkpt><trkpt lat="43.44361748270756" lon="11.421258091443615"><ele>337.0</ele><time>2026-04-25T06:43:25Z</time></trkpt><trkpt lat="43.44349536403735" lon="11.421346460029802"><ele>334.75</ele><time>2026-04-25T06:43:26Z</time></trkpt><trkpt lat="43.44338029593181" lon="11.421428522602497"><ele>332.5</ele><time>2026-04-25T06:43:27Z</time></trkpt><trkpt lat="43.44325434785161" lon="11.42150205757793"><ele>330.25</ele><time>2026-04-25T06:43:28Z</time></trkpt><trkpt lat="43.443118722777264" lon="11.42154759441973"><ele>328.0</ele><time>2026-04-25T06:43:29Z</time></trkpt><trkpt lat="43.44297798058898" lon="11.421567665008709"><ele>328.0</ele><time>2026-04-25T06:43:30Z</time></trkpt><trkpt lat="43.44283416164415" lon="11.421567321372656"><ele>328.0</ele><time>2026-04-25T06:43:31Z</time></trkpt><trkpt lat="43.442689880216385" lon="11.421560467924346"><ele>328.0</ele><time>2026-04-25T06:43:32Z</time></trkpt><trkpt lat="43.44254344883175" lon="11.42155387087827"><ele>328.0</ele><time>2026-04-25T06:43:33Z</time></trkpt><trkpt lat="43.44239722729654" lon="11.42153790003653"><ele>328.0</ele><time>2026-04-25T06:43:34Z</time></trkpt><trkpt lat="43.44225399899865" lon="11.421516928893986"><ele>328.0</ele><time>2026-04-25T06:43:35Z</time></trkpt><trkpt lat="43.442113673054706" lon="11.42149528422673"><ele>328.0</ele><time>2026-04-25T06:43:36Z</time></trkpt><trkpt lat="43.44197696253411" lon="11.421473456570984"><ele>328.0</ele><time>2026-04-25T06:43:37Z</time></trkpt><trkpt lat="43.441836641213186" lon="11.421452641820158"><ele>326.75</ele><time>2026-04-25T06:43:38Z</time></trkpt><trkpt lat="43.441695315900326" lon="11.421430069166679"><ele>325.5</ele><time>2026-04-25T06:43:39Z</time></trkpt><trkpt lat="43.44155523602865" lon="11.421409036570921"><ele>324.25</ele><time>2026-04-25T06:43:40Z</time></trkpt><trkpt lat="43.441415250305155" lon="11.4213890463833"><ele>323.0</ele><time>2026-04-25T06:43:41Z</time></trkpt><trkpt lat="43.441277998597755" lon="11.421363207063186"><ele>321.75</ele><time>2026-04-25T06:43:42Z</time></trkpt><trkpt lat="43.44114271353685" lon="11.421319986694728"><ele>320.5</ele><time>2026-04-25T06:43:43Z</time></trkpt><trkpt lat="43.44101219275569" lon="11.421253034009593"><ele>319.25</ele><time>2026-04-25T06:43:44Z</time></trkpt><trkpt lat="43.4408904453051" lon="11.42116485876117"><ele>318.0</ele><time>2026-04-25T06:43:45Z</time></trkpt><trkpt lat="43.44077378173362" lon="11.421067295082853"><ele>317.75</ele><time>2026-04-25T06:43:46Z</time></trkpt><trkpt lat="43.440654978640985" lon="11.420963958500394"><ele>317.5</ele><time>2026-04-25T06:43:47Z</time></trkpt><trkpt lat="43.440537014370776" lon="11.420858387745819"><ele>317.25</ele><time>2026-04-25T06:43:48Z</time></trkpt><trkpt lat="43.44041931328209" lon="11.420758389174749"><ele>317.0</ele><time>2026-04-25T06:43:49Z</time></trkpt><trkpt lat="43.44030115617462" lon="11.420656323731048"><ele>317.0</ele><time>2026-04-25T06:43:50Z</time></trkpt><trkpt lat="43.44018301560339" lon="11.420554806649122"><ele>317.0</ele><time>2026-04-25T06:43:51Z</time></trkpt><trkpt lat="43.44006206632384" lon="11.420448005891146"><ele>317.0</ele><time>2026-04-25T06:43:52Z</time></trkpt><trkpt lat="43.43994061051445" lon="11.420340351955778"><ele>317.0</ele><time>2026-04-25T06:43:53Z</time></trkpt><trkpt lat="43.43981647670236" lon="11.420238420811735"><ele>317.25</ele><time>2026-04-25T06:43:54Z</time></trkpt><trkpt lat="43.439690600203974" lon="11.420136479011648"><ele>317.5</ele><time>2026-04-25T06:43:55Z</time></trkpt><trkpt lat="43.43956373538774" lon="11.420033657974592"><ele>317.75</ele><time>2026-04-25T06:43:56Z</time></trkpt><trkpt lat="43.439436642260226" lon="11.419934167027076"><ele>318.0</ele><time>2026-04-25T06:43:57Z</time></trkpt><trkpt lat="43.43930672883135" lon="11.419846250181738"><ele>318.0</ele><time>2026-04-25T06:43:58Z</time></trkpt><trkpt lat="43.439169541557696" lon="11.41977035655733"><ele>318.0</ele><time>2026-04-25T06:43:59Z</time></trkpt><trkpt lat="43.43902963724486" lon="11.419707454642024"><ele>318.0</ele><time>2026-04-25T06:44:00Z</time></trkpt><trkpt lat="43.438883001330474" lon="11.419667958585354"><ele>318.0</ele><time>2026-04-25T06:44:01Z</time></trkpt><trkpt lat="43.43873244041556" lon="11.419641705185027"><ele>321.3333333333333</ele><time>2026-04-25T06:44:02Z</time></trkpt><trkpt lat="43.43858113050928" lon="11.41962499227497"><ele>324.66666666666663</ele><time>2026-04-25T06:44:03Z</time></trkpt><trkpt lat="43.438428563222296" lon="11.419610007317099"><ele>328.0</ele><time>2026-04-25T06:44:04Z</time></trkpt><trkpt lat="43.438277006299835" lon="11.419593628423877"><ele>328.0</ele><time>2026-04-25T06:44:05Z</time></trkpt><trkpt lat="43.43812535858703" lon="11.419574941851717"><ele>328.0</ele><time>2026-04-25T06:44:06Z</time></trkpt><trkpt lat="43.437982454334204" lon="11.419547398354327"><ele>328.0</ele><time>2026-04-25T06:44:07Z</time></trkpt><trkpt lat="43.43785279285116" lon="11.419521108597474"><ele>328.0</ele><time>2026-04-25T06:44:08Z</time></trkpt><trkpt lat="43.43774970696578" lon="11.419498014246784"><ele>323.0</ele><time>2026-04-25T06:44:09Z</time></trkpt><trkpt lat="43.43767139612676" lon="11.41947867149976"><ele>323.0</ele><time>2026-04-25T06:44:10Z</time></trkpt><trkpt lat="43.43756227147279" lon="11.41945403063544"><ele>323.0</ele><time>2026-04-25T06:44:12Z</time></trkpt><trkpt lat="43.43749478158448" lon="11.419429256389936"><ele>323.0</ele><time>2026-04-25T06:44:15Z</time></trkpt></trkseg></trk></gpx>